<?xml version="1.0" encoding="UTF-8" standalone="no" ?>
<gpx xmlns="http://www.topografix.com/GPX/1/1" xmlns:xsi="http://www.w3.org/2001/XMLSchema-instance" xsi:schemaLocation="http://www.topografix.com/GPX/1/1 http://www.topografix.com/GPX/1/1/gpx.xsd" version="1.1" creator="VisuGPX - https://www.visugpx.com">
  <metadata>
    <name>2021-06-29 18:37:58 [Garmin]</name>
  </metadata>
  <trk>
    <name><![CDATA[2021-06-29 18:37:58 [Garmin]_1]]></name>
    <trkseg>
      <trkpt lat="43.89698" lon="5.1543">
        <ele>222</ele>
        <time>2021-06-29T16:37:58Z</time>
      </trkpt>
      <trkpt lat="43.89701" lon="5.15437">
        <ele>222.2</ele>
        <time>2021-06-29T16:38:03Z</time>
      </trkpt>
      <trkpt lat="43.89703" lon="5.1544">
        <ele>222.2</ele>
        <time>2021-06-29T16:38:05Z</time>
      </trkpt>
      <trkpt lat="43.89707" lon="5.15446">
        <ele>222.4</ele>
        <time>2021-06-29T16:38:10Z</time>
      </trkpt>
      <trkpt lat="43.89717" lon="5.15457">
        <ele>223.2</ele>
        <time>2021-06-29T16:38:19Z</time>
      </trkpt>
      <trkpt lat="43.8972" lon="5.15461">
        <ele>223.4</ele>
        <time>2021-06-29T16:38:23Z</time>
      </trkpt>
      <trkpt lat="43.8973" lon="5.1547">
        <ele>224.2</ele>
        <time>2021-06-29T16:38:31Z</time>
      </trkpt>
      <trkpt lat="43.89739" lon="5.15473">
        <ele>225</ele>
        <time>2021-06-29T16:38:39Z</time>
      </trkpt>
      <trkpt lat="43.89741" lon="5.15475">
        <ele>225.2</ele>
        <time>2021-06-29T16:38:41Z</time>
      </trkpt>
      <trkpt lat="43.89746" lon="5.15478">
        <ele>225.8</ele>
        <time>2021-06-29T16:38:46Z</time>
      </trkpt>
      <trkpt lat="43.89747" lon="5.15481">
        <ele>226.2</ele>
        <time>2021-06-29T16:38:49Z</time>
      </trkpt>
      <trkpt lat="43.89747" lon="5.15482">
        <ele>226.2</ele>
        <time>2021-06-29T16:38:50Z</time>
      </trkpt>
      <trkpt lat="43.89754" lon="5.15483">
        <ele>226.4</ele>
        <time>2021-06-29T16:38:54Z</time>
      </trkpt>
      <trkpt lat="43.89767" lon="5.15493">
        <ele>227.2</ele>
        <time>2021-06-29T16:39:04Z</time>
      </trkpt>
      <trkpt lat="43.89781" lon="5.15506">
        <ele>228</ele>
        <time>2021-06-29T16:39:15Z</time>
      </trkpt>
      <trkpt lat="43.89782" lon="5.15509">
        <ele>228.2</ele>
        <time>2021-06-29T16:39:17Z</time>
      </trkpt>
      <trkpt lat="43.89782" lon="5.15512">
        <ele>228.4</ele>
        <time>2021-06-29T16:39:18Z</time>
      </trkpt>
      <trkpt lat="43.89797" lon="5.15528">
        <ele>229.4</ele>
        <time>2021-06-29T16:39:30Z</time>
      </trkpt>
      <trkpt lat="43.89801" lon="5.15533">
        <ele>229.8</ele>
        <time>2021-06-29T16:39:34Z</time>
      </trkpt>
      <trkpt lat="43.89809" lon="5.15544">
        <ele>230.4</ele>
        <time>2021-06-29T16:39:41Z</time>
      </trkpt>
      <trkpt lat="43.89811" lon="5.15546">
        <ele>230.6</ele>
        <time>2021-06-29T16:39:42Z</time>
      </trkpt>
      <trkpt lat="43.89814" lon="5.15552">
        <ele>231</ele>
        <time>2021-06-29T16:39:45Z</time>
      </trkpt>
      <trkpt lat="43.89821" lon="5.15561">
        <ele>231.2</ele>
        <time>2021-06-29T16:39:51Z</time>
      </trkpt>
      <trkpt lat="43.89824" lon="5.15566">
        <ele>231.6</ele>
        <time>2021-06-29T16:39:54Z</time>
      </trkpt>
      <trkpt lat="43.89826" lon="5.15571">
        <ele>231.6</ele>
        <time>2021-06-29T16:39:57Z</time>
      </trkpt>
      <trkpt lat="43.89834" lon="5.15594">
        <ele>232</ele>
        <time>2021-06-29T16:40:09Z</time>
      </trkpt>
      <trkpt lat="43.8984" lon="5.15619">
        <ele>232</ele>
        <time>2021-06-29T16:40:22Z</time>
      </trkpt>
      <trkpt lat="43.89852" lon="5.1564">
        <ele>232.2</ele>
        <time>2021-06-29T16:40:34Z</time>
      </trkpt>
      <trkpt lat="43.89855" lon="5.15647">
        <ele>232.4</ele>
        <time>2021-06-29T16:40:38Z</time>
      </trkpt>
      <trkpt lat="43.89854" lon="5.15648">
        <ele>232.6</ele>
        <time>2021-06-29T16:40:39Z</time>
      </trkpt>
      <trkpt lat="43.89855" lon="5.1565">
        <ele>232.6</ele>
        <time>2021-06-29T16:40:40Z</time>
      </trkpt>
      <trkpt lat="43.89866" lon="5.15671">
        <ele>233.4</ele>
        <time>2021-06-29T16:40:56Z</time>
      </trkpt>
      <trkpt lat="43.89869" lon="5.15677">
        <ele>233.4</ele>
        <time>2021-06-29T16:40:59Z</time>
      </trkpt>
      <trkpt lat="43.89871" lon="5.15681">
        <ele>233.4</ele>
        <time>2021-06-29T16:41:02Z</time>
      </trkpt>
      <trkpt lat="43.89874" lon="5.15683">
        <ele>233.6</ele>
        <time>2021-06-29T16:41:05Z</time>
      </trkpt>
      <trkpt lat="43.89875" lon="5.15683">
        <ele>233.8</ele>
        <time>2021-06-29T16:41:07Z</time>
      </trkpt>
      <trkpt lat="43.89876" lon="5.15686">
        <ele>233.8</ele>
        <time>2021-06-29T16:41:11Z</time>
      </trkpt>
      <trkpt lat="43.89882" lon="5.15687">
        <ele>234</ele>
        <time>2021-06-29T16:41:16Z</time>
      </trkpt>
      <trkpt lat="43.89885" lon="5.15687">
        <ele>234.4</ele>
        <time>2021-06-29T16:41:19Z</time>
      </trkpt>
      <trkpt lat="43.89886" lon="5.15688">
        <ele>234.6</ele>
        <time>2021-06-29T16:41:20Z</time>
      </trkpt>
      <trkpt lat="43.89886" lon="5.15692">
        <ele>234.8</ele>
        <time>2021-06-29T16:41:22Z</time>
      </trkpt>
      <trkpt lat="43.8989" lon="5.15695">
        <ele>235</ele>
        <time>2021-06-29T16:41:26Z</time>
      </trkpt>
      <trkpt lat="43.89898" lon="5.1569">
        <ele>235.6</ele>
        <time>2021-06-29T16:41:33Z</time>
      </trkpt>
      <trkpt lat="43.89899" lon="5.1569">
        <ele>235.8</ele>
        <time>2021-06-29T16:41:34Z</time>
      </trkpt>
      <trkpt lat="43.89904" lon="5.1569">
        <ele>236.4</ele>
        <time>2021-06-29T16:41:39Z</time>
      </trkpt>
      <trkpt lat="43.89913" lon="5.15698">
        <ele>236.8</ele>
        <time>2021-06-29T16:41:46Z</time>
      </trkpt>
      <trkpt lat="43.89914" lon="5.157">
        <ele>237</ele>
        <time>2021-06-29T16:41:47Z</time>
      </trkpt>
      <trkpt lat="43.89924" lon="5.15722">
        <ele>237.4</ele>
        <time>2021-06-29T16:41:57Z</time>
      </trkpt>
      <trkpt lat="43.89929" lon="5.15729">
        <ele>237.6</ele>
        <time>2021-06-29T16:42:01Z</time>
      </trkpt>
      <trkpt lat="43.89933" lon="5.15736">
        <ele>237.4</ele>
        <time>2021-06-29T16:42:06Z</time>
      </trkpt>
      <trkpt lat="43.89935" lon="5.15742">
        <ele>237.2</ele>
        <time>2021-06-29T16:42:09Z</time>
      </trkpt>
      <trkpt lat="43.89936" lon="5.15746">
        <ele>237.2</ele>
        <time>2021-06-29T16:42:11Z</time>
      </trkpt>
      <trkpt lat="43.89939" lon="5.15757">
        <ele>236.6</ele>
        <time>2021-06-29T16:42:17Z</time>
      </trkpt>
      <trkpt lat="43.89942" lon="5.15762">
        <ele>236.6</ele>
        <time>2021-06-29T16:42:20Z</time>
      </trkpt>
      <trkpt lat="43.89947" lon="5.15778">
        <ele>236</ele>
        <time>2021-06-29T16:42:30Z</time>
      </trkpt>
      <trkpt lat="43.89949" lon="5.15784">
        <ele>235.8</ele>
        <time>2021-06-29T16:42:32Z</time>
      </trkpt>
      <trkpt lat="43.89952" lon="5.15791">
        <ele>235.6</ele>
        <time>2021-06-29T16:42:35Z</time>
      </trkpt>
      <trkpt lat="43.89954" lon="5.15807">
        <ele>235.4</ele>
        <time>2021-06-29T16:42:41Z</time>
      </trkpt>
      <trkpt lat="43.89953" lon="5.15819">
        <ele>234.6</ele>
        <time>2021-06-29T16:42:47Z</time>
      </trkpt>
      <trkpt lat="43.89953" lon="5.15822">
        <ele>234.4</ele>
        <time>2021-06-29T16:42:48Z</time>
      </trkpt>
      <trkpt lat="43.89953" lon="5.15831">
        <ele>234</ele>
        <time>2021-06-29T16:42:52Z</time>
      </trkpt>
      <trkpt lat="43.89953" lon="5.15834">
        <ele>233.8</ele>
        <time>2021-06-29T16:42:54Z</time>
      </trkpt>
      <trkpt lat="43.89952" lon="5.15841">
        <ele>233.6</ele>
        <time>2021-06-29T16:42:58Z</time>
      </trkpt>
      <trkpt lat="43.89951" lon="5.15842">
        <ele>233.6</ele>
        <time>2021-06-29T16:42:59Z</time>
      </trkpt>
      <trkpt lat="43.89949" lon="5.15845">
        <ele>233.4</ele>
        <time>2021-06-29T16:43:01Z</time>
      </trkpt>
      <trkpt lat="43.89949" lon="5.15853">
        <ele>233</ele>
        <time>2021-06-29T16:43:05Z</time>
      </trkpt>
      <trkpt lat="43.89948" lon="5.15864">
        <ele>232.6</ele>
        <time>2021-06-29T16:43:10Z</time>
      </trkpt>
      <trkpt lat="43.89949" lon="5.15871">
        <ele>232.2</ele>
        <time>2021-06-29T16:43:13Z</time>
      </trkpt>
      <trkpt lat="43.89955" lon="5.15881">
        <ele>231.8</ele>
        <time>2021-06-29T16:43:19Z</time>
      </trkpt>
      <trkpt lat="43.89956" lon="5.15886">
        <ele>232</ele>
        <time>2021-06-29T16:43:22Z</time>
      </trkpt>
      <trkpt lat="43.89958" lon="5.15901">
        <ele>232</ele>
        <time>2021-06-29T16:43:31Z</time>
      </trkpt>
      <trkpt lat="43.89959" lon="5.15907">
        <ele>231.6</ele>
        <time>2021-06-29T16:43:34Z</time>
      </trkpt>
      <trkpt lat="43.8996" lon="5.15911">
        <ele>231.4</ele>
        <time>2021-06-29T16:43:35Z</time>
      </trkpt>
      <trkpt lat="43.89968" lon="5.15935">
        <ele>231</ele>
        <time>2021-06-29T16:43:46Z</time>
      </trkpt>
      <trkpt lat="43.89969" lon="5.15941">
        <ele>230.4</ele>
        <time>2021-06-29T16:43:49Z</time>
      </trkpt>
      <trkpt lat="43.89973" lon="5.15956">
        <ele>230.2</ele>
        <time>2021-06-29T16:43:56Z</time>
      </trkpt>
      <trkpt lat="43.89973" lon="5.15965">
        <ele>230</ele>
        <time>2021-06-29T16:44:02Z</time>
      </trkpt>
      <trkpt lat="43.89981" lon="5.1597">
        <ele>230.6</ele>
        <time>2021-06-29T16:44:10Z</time>
      </trkpt>
      <trkpt lat="43.89986" lon="5.15975">
        <ele>230.8</ele>
        <time>2021-06-29T16:44:15Z</time>
      </trkpt>
      <trkpt lat="43.89993" lon="5.1598">
        <ele>231.8</ele>
        <time>2021-06-29T16:44:20Z</time>
      </trkpt>
      <trkpt lat="43.89994" lon="5.15981">
        <ele>232</ele>
        <time>2021-06-29T16:44:21Z</time>
      </trkpt>
      <trkpt lat="43.90005" lon="5.1598">
        <ele>232.8</ele>
        <time>2021-06-29T16:44:29Z</time>
      </trkpt>
      <trkpt lat="43.90012" lon="5.15981">
        <ele>233.8</ele>
        <time>2021-06-29T16:44:34Z</time>
      </trkpt>
      <trkpt lat="43.9002" lon="5.15989">
        <ele>233.8</ele>
        <time>2021-06-29T16:44:39Z</time>
      </trkpt>
      <trkpt lat="43.90037" lon="5.16003">
        <ele>234.6</ele>
        <time>2021-06-29T16:44:51Z</time>
      </trkpt>
      <trkpt lat="43.90042" lon="5.16009">
        <ele>234.8</ele>
        <time>2021-06-29T16:44:55Z</time>
      </trkpt>
      <trkpt lat="43.90043" lon="5.1601">
        <ele>235</ele>
        <time>2021-06-29T16:44:56Z</time>
      </trkpt>
      <trkpt lat="43.90045" lon="5.16015">
        <ele>235</ele>
        <time>2021-06-29T16:45:00Z</time>
      </trkpt>
      <trkpt lat="43.90051" lon="5.16021">
        <ele>235</ele>
        <time>2021-06-29T16:45:04Z</time>
      </trkpt>
      <trkpt lat="43.90066" lon="5.16035">
        <ele>235.8</ele>
        <time>2021-06-29T16:45:13Z</time>
      </trkpt>
      <trkpt lat="43.90074" lon="5.16045">
        <ele>236</ele>
        <time>2021-06-29T16:45:21Z</time>
      </trkpt>
      <trkpt lat="43.90086" lon="5.16058">
        <ele>236.6</ele>
        <time>2021-06-29T16:45:32Z</time>
      </trkpt>
      <trkpt lat="43.90095" lon="5.16068">
        <ele>236.8</ele>
        <time>2021-06-29T16:45:38Z</time>
      </trkpt>
      <trkpt lat="43.90111" lon="5.16082">
        <ele>237.6</ele>
        <time>2021-06-29T16:45:51Z</time>
      </trkpt>
      <trkpt lat="43.90117" lon="5.16089">
        <ele>238</ele>
        <time>2021-06-29T16:45:55Z</time>
      </trkpt>
      <trkpt lat="43.90124" lon="5.161">
        <ele>238.6</ele>
        <time>2021-06-29T16:46:03Z</time>
      </trkpt>
      <trkpt lat="43.90135" lon="5.16109">
        <ele>239</ele>
        <time>2021-06-29T16:46:12Z</time>
      </trkpt>
      <trkpt lat="43.90146" lon="5.16101">
        <ele>239.6</ele>
        <time>2021-06-29T16:46:20Z</time>
      </trkpt>
      <trkpt lat="43.90153" lon="5.16105">
        <ele>240</ele>
        <time>2021-06-29T16:46:25Z</time>
      </trkpt>
      <trkpt lat="43.90167" lon="5.16118">
        <ele>240.8</ele>
        <time>2021-06-29T16:46:36Z</time>
      </trkpt>
      <trkpt lat="43.90169" lon="5.1612">
        <ele>241.2</ele>
        <time>2021-06-29T16:46:38Z</time>
      </trkpt>
      <trkpt lat="43.90174" lon="5.16127">
        <ele>241.8</ele>
        <time>2021-06-29T16:46:43Z</time>
      </trkpt>
      <trkpt lat="43.90188" lon="5.16146">
        <ele>242</ele>
        <time>2021-06-29T16:46:55Z</time>
      </trkpt>
      <trkpt lat="43.90189" lon="5.16147">
        <ele>242.2</ele>
        <time>2021-06-29T16:46:56Z</time>
      </trkpt>
      <trkpt lat="43.90192" lon="5.16157">
        <ele>242.4</ele>
        <time>2021-06-29T16:47:02Z</time>
      </trkpt>
      <trkpt lat="43.90198" lon="5.1616">
        <ele>242.2</ele>
        <time>2021-06-29T16:47:05Z</time>
      </trkpt>
      <trkpt lat="43.90201" lon="5.16162">
        <ele>242.2</ele>
        <time>2021-06-29T16:47:08Z</time>
      </trkpt>
      <trkpt lat="43.90212" lon="5.16168">
        <ele>242.2</ele>
        <time>2021-06-29T16:47:22Z</time>
      </trkpt>
      <trkpt lat="43.90215" lon="5.16169">
        <ele>242.2</ele>
        <time>2021-06-29T16:47:25Z</time>
      </trkpt>
      <trkpt lat="43.90221" lon="5.16172">
        <ele>242.6</ele>
        <time>2021-06-29T16:47:30Z</time>
      </trkpt>
      <trkpt lat="43.90231" lon="5.16174">
        <ele>243.4</ele>
        <time>2021-06-29T16:47:38Z</time>
      </trkpt>
      <trkpt lat="43.90239" lon="5.16172">
        <ele>243.8</ele>
        <time>2021-06-29T16:47:46Z</time>
      </trkpt>
      <trkpt lat="43.90244" lon="5.16173">
        <ele>244</ele>
        <time>2021-06-29T16:47:49Z</time>
      </trkpt>
      <trkpt lat="43.90247" lon="5.16175">
        <ele>244.4</ele>
        <time>2021-06-29T16:47:51Z</time>
      </trkpt>
      <trkpt lat="43.90261" lon="5.16191">
        <ele>244.8</ele>
        <time>2021-06-29T16:48:03Z</time>
      </trkpt>
      <trkpt lat="43.90268" lon="5.16199">
        <ele>245.8</ele>
        <time>2021-06-29T16:48:08Z</time>
      </trkpt>
      <trkpt lat="43.90278" lon="5.16207">
        <ele>245.4</ele>
        <time>2021-06-29T16:48:17Z</time>
      </trkpt>
      <trkpt lat="43.90281" lon="5.16208">
        <ele>245.4</ele>
        <time>2021-06-29T16:48:19Z</time>
      </trkpt>
      <trkpt lat="43.90294" lon="5.16213">
        <ele>246.2</ele>
        <time>2021-06-29T16:48:28Z</time>
      </trkpt>
      <trkpt lat="43.90299" lon="5.16221">
        <ele>246.4</ele>
        <time>2021-06-29T16:48:32Z</time>
      </trkpt>
      <trkpt lat="43.90307" lon="5.16246">
        <ele>246</ele>
        <time>2021-06-29T16:48:42Z</time>
      </trkpt>
      <trkpt lat="43.90304" lon="5.16266">
        <ele>244.6</ele>
        <time>2021-06-29T16:48:51Z</time>
      </trkpt>
      <trkpt lat="43.90305" lon="5.16287">
        <ele>244.2</ele>
        <time>2021-06-29T16:49:00Z</time>
      </trkpt>
      <trkpt lat="43.90303" lon="5.16295">
        <ele>243.6</ele>
        <time>2021-06-29T16:49:04Z</time>
      </trkpt>
      <trkpt lat="43.90299" lon="5.16308">
        <ele>243</ele>
        <time>2021-06-29T16:49:11Z</time>
      </trkpt>
      <trkpt lat="43.90298" lon="5.16316">
        <ele>242.6</ele>
        <time>2021-06-29T16:49:15Z</time>
      </trkpt>
      <trkpt lat="43.90299" lon="5.16325">
        <ele>242.4</ele>
        <time>2021-06-29T16:49:19Z</time>
      </trkpt>
      <trkpt lat="43.90295" lon="5.16343">
        <ele>241.4</ele>
        <time>2021-06-29T16:49:28Z</time>
      </trkpt>
      <trkpt lat="43.90293" lon="5.16357">
        <ele>240.4</ele>
        <time>2021-06-29T16:49:34Z</time>
      </trkpt>
      <trkpt lat="43.90293" lon="5.16373">
        <ele>239.8</ele>
        <time>2021-06-29T16:49:41Z</time>
      </trkpt>
      <trkpt lat="43.90291" lon="5.16377">
        <ele>239.2</ele>
        <time>2021-06-29T16:49:44Z</time>
      </trkpt>
      <trkpt lat="43.90289" lon="5.16385">
        <ele>238.2</ele>
        <time>2021-06-29T16:49:48Z</time>
      </trkpt>
      <trkpt lat="43.90287" lon="5.16388">
        <ele>237.8</ele>
        <time>2021-06-29T16:49:50Z</time>
      </trkpt>
      <trkpt lat="43.90286" lon="5.16395">
        <ele>237.2</ele>
        <time>2021-06-29T16:49:53Z</time>
      </trkpt>
      <trkpt lat="43.90286" lon="5.16401">
        <ele>236.8</ele>
        <time>2021-06-29T16:49:56Z</time>
      </trkpt>
      <trkpt lat="43.90286" lon="5.16405">
        <ele>236.2</ele>
        <time>2021-06-29T16:49:58Z</time>
      </trkpt>
      <trkpt lat="43.90285" lon="5.16407">
        <ele>235.8</ele>
        <time>2021-06-29T16:49:59Z</time>
      </trkpt>
      <trkpt lat="43.90285" lon="5.16409">
        <ele>235.4</ele>
        <time>2021-06-29T16:50:00Z</time>
      </trkpt>
      <trkpt lat="43.90284" lon="5.16412">
        <ele>234.8</ele>
        <time>2021-06-29T16:50:02Z</time>
      </trkpt>
      <trkpt lat="43.90282" lon="5.16415">
        <ele>233.6</ele>
        <time>2021-06-29T16:50:05Z</time>
      </trkpt>
      <trkpt lat="43.9028" lon="5.16425">
        <ele>232.8</ele>
        <time>2021-06-29T16:50:10Z</time>
      </trkpt>
      <trkpt lat="43.9028" lon="5.16429">
        <ele>232.4</ele>
        <time>2021-06-29T16:50:12Z</time>
      </trkpt>
      <trkpt lat="43.9028" lon="5.16431">
        <ele>232.4</ele>
        <time>2021-06-29T16:50:13Z</time>
      </trkpt>
      <trkpt lat="43.90277" lon="5.1645">
        <ele>231.4</ele>
        <time>2021-06-29T16:50:23Z</time>
      </trkpt>
      <trkpt lat="43.90277" lon="5.16454">
        <ele>231.2</ele>
        <time>2021-06-29T16:50:25Z</time>
      </trkpt>
      <trkpt lat="43.90276" lon="5.16458">
        <ele>231.2</ele>
        <time>2021-06-29T16:50:27Z</time>
      </trkpt>
      <trkpt lat="43.90276" lon="5.16469">
        <ele>231.4</ele>
        <time>2021-06-29T16:50:32Z</time>
      </trkpt>
      <trkpt lat="43.90275" lon="5.16476">
        <ele>232.2</ele>
        <time>2021-06-29T16:50:37Z</time>
      </trkpt>
      <trkpt lat="43.90275" lon="5.16479">
        <ele>232.6</ele>
        <time>2021-06-29T16:50:39Z</time>
      </trkpt>
      <trkpt lat="43.90274" lon="5.16482">
        <ele>233</ele>
        <time>2021-06-29T16:50:41Z</time>
      </trkpt>
      <trkpt lat="43.90273" lon="5.16485">
        <ele>233.6</ele>
        <time>2021-06-29T16:50:43Z</time>
      </trkpt>
      <trkpt lat="43.90271" lon="5.16489">
        <ele>234</ele>
        <time>2021-06-29T16:50:46Z</time>
      </trkpt>
      <trkpt lat="43.9027" lon="5.16492">
        <ele>234.8</ele>
        <time>2021-06-29T16:50:49Z</time>
      </trkpt>
      <trkpt lat="43.9027" lon="5.16494">
        <ele>235.2</ele>
        <time>2021-06-29T16:50:50Z</time>
      </trkpt>
      <trkpt lat="43.90269" lon="5.16497">
        <ele>236</ele>
        <time>2021-06-29T16:50:53Z</time>
      </trkpt>
      <trkpt lat="43.90268" lon="5.16505">
        <ele>237.2</ele>
        <time>2021-06-29T16:50:58Z</time>
      </trkpt>
      <trkpt lat="43.90266" lon="5.16515">
        <ele>238.2</ele>
        <time>2021-06-29T16:51:04Z</time>
      </trkpt>
      <trkpt lat="43.90264" lon="5.16519">
        <ele>238.6</ele>
        <time>2021-06-29T16:51:07Z</time>
      </trkpt>
      <trkpt lat="43.90259" lon="5.1653">
        <ele>239.2</ele>
        <time>2021-06-29T16:51:29Z</time>
      </trkpt>
      <trkpt lat="43.90259" lon="5.16539">
        <ele>239.6</ele>
        <time>2021-06-29T16:51:35Z</time>
      </trkpt>
      <trkpt lat="43.90256" lon="5.16547">
        <ele>238.6</ele>
        <time>2021-06-29T16:51:58Z</time>
      </trkpt>
      <trkpt lat="43.90255" lon="5.16557">
        <ele>238.2</ele>
        <time>2021-06-29T16:52:03Z</time>
      </trkpt>
      <trkpt lat="43.90252" lon="5.16578">
        <ele>237</ele>
        <time>2021-06-29T16:52:12Z</time>
      </trkpt>
      <trkpt lat="43.90253" lon="5.1659">
        <ele>235.8</ele>
        <time>2021-06-29T16:52:18Z</time>
      </trkpt>
      <trkpt lat="43.90259" lon="5.16605">
        <ele>234.4</ele>
        <time>2021-06-29T16:52:26Z</time>
      </trkpt>
      <trkpt lat="43.9026" lon="5.16613">
        <ele>233.2</ele>
        <time>2021-06-29T16:52:30Z</time>
      </trkpt>
      <trkpt lat="43.90262" lon="5.16618">
        <ele>232.8</ele>
        <time>2021-06-29T16:52:33Z</time>
      </trkpt>
      <trkpt lat="43.90267" lon="5.16626">
        <ele>232.8</ele>
        <time>2021-06-29T16:52:38Z</time>
      </trkpt>
      <trkpt lat="43.90269" lon="5.1663">
        <ele>233</ele>
        <time>2021-06-29T16:52:40Z</time>
      </trkpt>
      <trkpt lat="43.90277" lon="5.16649">
        <ele>234.2</ele>
        <time>2021-06-29T16:52:52Z</time>
      </trkpt>
      <trkpt lat="43.90281" lon="5.16665">
        <ele>235.4</ele>
        <time>2021-06-29T16:53:01Z</time>
      </trkpt>
      <trkpt lat="43.90286" lon="5.1668">
        <ele>236.6</ele>
        <time>2021-06-29T16:53:08Z</time>
      </trkpt>
      <trkpt lat="43.90286" lon="5.16683">
        <ele>236.8</ele>
        <time>2021-06-29T16:53:10Z</time>
      </trkpt>
      <trkpt lat="43.9029" lon="5.16691">
        <ele>237.6</ele>
        <time>2021-06-29T16:53:15Z</time>
      </trkpt>
      <trkpt lat="43.90295" lon="5.16701">
        <ele>238.6</ele>
        <time>2021-06-29T16:53:21Z</time>
      </trkpt>
      <trkpt lat="43.90296" lon="5.16704">
        <ele>238.8</ele>
        <time>2021-06-29T16:53:23Z</time>
      </trkpt>
      <trkpt lat="43.90298" lon="5.16708">
        <ele>239</ele>
        <time>2021-06-29T16:53:25Z</time>
      </trkpt>
      <trkpt lat="43.903" lon="5.16713">
        <ele>240</ele>
        <time>2021-06-29T16:53:29Z</time>
      </trkpt>
      <trkpt lat="43.90302" lon="5.1672">
        <ele>241</ele>
        <time>2021-06-29T16:53:33Z</time>
      </trkpt>
      <trkpt lat="43.90304" lon="5.16727">
        <ele>242</ele>
        <time>2021-06-29T16:53:37Z</time>
      </trkpt>
      <trkpt lat="43.90304" lon="5.16729">
        <ele>242.2</ele>
        <time>2021-06-29T16:53:38Z</time>
      </trkpt>
      <trkpt lat="43.90306" lon="5.16737">
        <ele>243.2</ele>
        <time>2021-06-29T16:53:42Z</time>
      </trkpt>
      <trkpt lat="43.90307" lon="5.16741">
        <ele>243.4</ele>
        <time>2021-06-29T16:53:44Z</time>
      </trkpt>
      <trkpt lat="43.90309" lon="5.16745">
        <ele>243.4</ele>
        <time>2021-06-29T16:53:46Z</time>
      </trkpt>
      <trkpt lat="43.90309" lon="5.16749">
        <ele>243.8</ele>
        <time>2021-06-29T16:53:48Z</time>
      </trkpt>
      <trkpt lat="43.9031" lon="5.16758">
        <ele>244.4</ele>
        <time>2021-06-29T16:53:53Z</time>
      </trkpt>
      <trkpt lat="43.90312" lon="5.16773">
        <ele>245.4</ele>
        <time>2021-06-29T16:54:00Z</time>
      </trkpt>
      <trkpt lat="43.90312" lon="5.16781">
        <ele>245.6</ele>
        <time>2021-06-29T16:54:03Z</time>
      </trkpt>
      <trkpt lat="43.90315" lon="5.16801">
        <ele>246.4</ele>
        <time>2021-06-29T16:54:13Z</time>
      </trkpt>
      <trkpt lat="43.90315" lon="5.16812">
        <ele>246.6</ele>
        <time>2021-06-29T16:54:19Z</time>
      </trkpt>
      <trkpt lat="43.90317" lon="5.16822">
        <ele>246.8</ele>
        <time>2021-06-29T16:54:24Z</time>
      </trkpt>
      <trkpt lat="43.9032" lon="5.1684">
        <ele>247.6</ele>
        <time>2021-06-29T16:54:32Z</time>
      </trkpt>
      <trkpt lat="43.90322" lon="5.16867">
        <ele>248.4</ele>
        <time>2021-06-29T16:54:44Z</time>
      </trkpt>
      <trkpt lat="43.90324" lon="5.16884">
        <ele>248.6</ele>
        <time>2021-06-29T16:54:52Z</time>
      </trkpt>
      <trkpt lat="43.90324" lon="5.16892">
        <ele>249.2</ele>
        <time>2021-06-29T16:54:56Z</time>
      </trkpt>
      <trkpt lat="43.90324" lon="5.16917">
        <ele>249.6</ele>
        <time>2021-06-29T16:55:07Z</time>
      </trkpt>
      <trkpt lat="43.90325" lon="5.16943">
        <ele>250</ele>
        <time>2021-06-29T16:55:17Z</time>
      </trkpt>
      <trkpt lat="43.90323" lon="5.16968">
        <ele>250.6</ele>
        <time>2021-06-29T16:55:29Z</time>
      </trkpt>
      <trkpt lat="43.90328" lon="5.16986">
        <ele>250.8</ele>
        <time>2021-06-29T16:55:38Z</time>
      </trkpt>
      <trkpt lat="43.9033" lon="5.16997">
        <ele>251.8</ele>
        <time>2021-06-29T16:55:43Z</time>
      </trkpt>
      <trkpt lat="43.90333" lon="5.17023">
        <ele>251.4</ele>
        <time>2021-06-29T16:55:55Z</time>
      </trkpt>
      <trkpt lat="43.9034" lon="5.17047">
        <ele>252.6</ele>
        <time>2021-06-29T16:56:06Z</time>
      </trkpt>
      <trkpt lat="43.90341" lon="5.17052">
        <ele>252.8</ele>
        <time>2021-06-29T16:56:09Z</time>
      </trkpt>
      <trkpt lat="43.90341" lon="5.17079">
        <ele>252.8</ele>
        <time>2021-06-29T16:56:22Z</time>
      </trkpt>
      <trkpt lat="43.90344" lon="5.17105">
        <ele>253.8</ele>
        <time>2021-06-29T16:56:34Z</time>
      </trkpt>
      <trkpt lat="43.90342" lon="5.17131">
        <ele>253.8</ele>
        <time>2021-06-29T16:56:45Z</time>
      </trkpt>
      <trkpt lat="43.90343" lon="5.17133">
        <ele>253.8</ele>
        <time>2021-06-29T16:56:46Z</time>
      </trkpt>
      <trkpt lat="43.90346" lon="5.17159">
        <ele>253.8</ele>
        <time>2021-06-29T16:56:57Z</time>
      </trkpt>
      <trkpt lat="43.90346" lon="5.17161">
        <ele>254</ele>
        <time>2021-06-29T16:56:58Z</time>
      </trkpt>
      <trkpt lat="43.90343" lon="5.17187">
        <ele>253.6</ele>
        <time>2021-06-29T16:57:10Z</time>
      </trkpt>
      <trkpt lat="43.90344" lon="5.17212">
        <ele>253.8</ele>
        <time>2021-06-29T16:57:21Z</time>
      </trkpt>
      <trkpt lat="43.90341" lon="5.17239">
        <ele>254</ele>
        <time>2021-06-29T16:57:34Z</time>
      </trkpt>
      <trkpt lat="43.90344" lon="5.17263">
        <ele>254.4</ele>
        <time>2021-06-29T16:57:45Z</time>
      </trkpt>
      <trkpt lat="43.90341" lon="5.17289">
        <ele>254.2</ele>
        <time>2021-06-29T16:57:58Z</time>
      </trkpt>
      <trkpt lat="43.90341" lon="5.17307">
        <ele>254.2</ele>
        <time>2021-06-29T16:58:07Z</time>
      </trkpt>
      <trkpt lat="43.90341" lon="5.17313">
        <ele>254.2</ele>
        <time>2021-06-29T16:58:10Z</time>
      </trkpt>
      <trkpt lat="43.90339" lon="5.17339">
        <ele>254</ele>
        <time>2021-06-29T16:58:21Z</time>
      </trkpt>
      <trkpt lat="43.90342" lon="5.17354">
        <ele>253.8</ele>
        <time>2021-06-29T16:58:28Z</time>
      </trkpt>
      <trkpt lat="43.90337" lon="5.1737">
        <ele>253</ele>
        <time>2021-06-29T16:58:37Z</time>
      </trkpt>
      <trkpt lat="43.90336" lon="5.17371">
        <ele>252.8</ele>
        <time>2021-06-29T16:58:38Z</time>
      </trkpt>
      <trkpt lat="43.90318" lon="5.1738">
        <ele>252</ele>
        <time>2021-06-29T16:58:51Z</time>
      </trkpt>
      <trkpt lat="43.90316" lon="5.17382">
        <ele>251.8</ele>
        <time>2021-06-29T16:58:53Z</time>
      </trkpt>
      <trkpt lat="43.90305" lon="5.17403">
        <ele>251</ele>
        <time>2021-06-29T16:59:05Z</time>
      </trkpt>
      <trkpt lat="43.90296" lon="5.17426">
        <ele>251.2</ele>
        <time>2021-06-29T16:59:17Z</time>
      </trkpt>
      <trkpt lat="43.90288" lon="5.17449">
        <ele>251.4</ele>
        <time>2021-06-29T16:59:27Z</time>
      </trkpt>
      <trkpt lat="43.9028" lon="5.17472">
        <ele>251</ele>
        <time>2021-06-29T16:59:38Z</time>
      </trkpt>
      <trkpt lat="43.90276" lon="5.17483">
        <ele>250.8</ele>
        <time>2021-06-29T16:59:44Z</time>
      </trkpt>
      <trkpt lat="43.90267" lon="5.17507">
        <ele>250.8</ele>
        <time>2021-06-29T16:59:55Z</time>
      </trkpt>
      <trkpt lat="43.90261" lon="5.17533">
        <ele>250.4</ele>
        <time>2021-06-29T17:00:08Z</time>
      </trkpt>
      <trkpt lat="43.90259" lon="5.17545">
        <ele>249.6</ele>
        <time>2021-06-29T17:00:14Z</time>
      </trkpt>
      <trkpt lat="43.90255" lon="5.1757">
        <ele>249.8</ele>
        <time>2021-06-29T17:00:26Z</time>
      </trkpt>
      <trkpt lat="43.90257" lon="5.17594">
        <ele>250.6</ele>
        <time>2021-06-29T17:00:38Z</time>
      </trkpt>
      <trkpt lat="43.90262" lon="5.17615">
        <ele>250.8</ele>
        <time>2021-06-29T17:00:48Z</time>
      </trkpt>
      <trkpt lat="43.90265" lon="5.17632">
        <ele>251.4</ele>
        <time>2021-06-29T17:00:56Z</time>
      </trkpt>
      <trkpt lat="43.90264" lon="5.17636">
        <ele>251.8</ele>
        <time>2021-06-29T17:00:58Z</time>
      </trkpt>
      <trkpt lat="43.90264" lon="5.17638">
        <ele>251.8</ele>
        <time>2021-06-29T17:00:59Z</time>
      </trkpt>
      <trkpt lat="43.90268" lon="5.17663">
        <ele>251.4</ele>
        <time>2021-06-29T17:01:10Z</time>
      </trkpt>
      <trkpt lat="43.90274" lon="5.17687">
        <ele>251.2</ele>
        <time>2021-06-29T17:01:20Z</time>
      </trkpt>
      <trkpt lat="43.90269" lon="5.17699">
        <ele>250.6</ele>
        <time>2021-06-29T17:01:26Z</time>
      </trkpt>
      <trkpt lat="43.90263" lon="5.17724">
        <ele>250</ele>
        <time>2021-06-29T17:01:38Z</time>
      </trkpt>
      <trkpt lat="43.90257" lon="5.17746">
        <ele>249.4</ele>
        <time>2021-06-29T17:01:49Z</time>
      </trkpt>
      <trkpt lat="43.90251" lon="5.17769">
        <ele>248.8</ele>
        <time>2021-06-29T17:02:00Z</time>
      </trkpt>
      <trkpt lat="43.90246" lon="5.17794">
        <ele>248.4</ele>
        <time>2021-06-29T17:02:13Z</time>
      </trkpt>
      <trkpt lat="43.9024" lon="5.1782">
        <ele>247.4</ele>
        <time>2021-06-29T17:02:26Z</time>
      </trkpt>
      <trkpt lat="43.90238" lon="5.17831">
        <ele>247.4</ele>
        <time>2021-06-29T17:02:32Z</time>
      </trkpt>
      <trkpt lat="43.90233" lon="5.1785">
        <ele>246.4</ele>
        <time>2021-06-29T17:02:42Z</time>
      </trkpt>
      <trkpt lat="43.90232" lon="5.17852">
        <ele>246.4</ele>
        <time>2021-06-29T17:02:43Z</time>
      </trkpt>
      <trkpt lat="43.90229" lon="5.17876">
        <ele>246</ele>
        <time>2021-06-29T17:02:53Z</time>
      </trkpt>
      <trkpt lat="43.90222" lon="5.17893">
        <ele>245.2</ele>
        <time>2021-06-29T17:03:01Z</time>
      </trkpt>
      <trkpt lat="43.90213" lon="5.17917">
        <ele>244.2</ele>
        <time>2021-06-29T17:03:13Z</time>
      </trkpt>
      <trkpt lat="43.90213" lon="5.17918">
        <ele>244.2</ele>
        <time>2021-06-29T17:03:14Z</time>
      </trkpt>
      <trkpt lat="43.90205" lon="5.1794">
        <ele>243.6</ele>
        <time>2021-06-29T17:03:26Z</time>
      </trkpt>
      <trkpt lat="43.90196" lon="5.17962">
        <ele>243.6</ele>
        <time>2021-06-29T17:03:39Z</time>
      </trkpt>
      <trkpt lat="43.90192" lon="5.17966">
        <ele>243</ele>
        <time>2021-06-29T17:03:42Z</time>
      </trkpt>
      <trkpt lat="43.90188" lon="5.1798">
        <ele>242.6</ele>
        <time>2021-06-29T17:03:49Z</time>
      </trkpt>
      <trkpt lat="43.90184" lon="5.18005">
        <ele>242.4</ele>
        <time>2021-06-29T17:04:01Z</time>
      </trkpt>
      <trkpt lat="43.90175" lon="5.18023">
        <ele>242</ele>
        <time>2021-06-29T17:04:10Z</time>
      </trkpt>
      <trkpt lat="43.90167" lon="5.18041">
        <ele>241</ele>
        <time>2021-06-29T17:04:20Z</time>
      </trkpt>
      <trkpt lat="43.9016" lon="5.18063">
        <ele>240.6</ele>
        <time>2021-06-29T17:04:31Z</time>
      </trkpt>
      <trkpt lat="43.90156" lon="5.18071">
        <ele>240</ele>
        <time>2021-06-29T17:04:36Z</time>
      </trkpt>
      <trkpt lat="43.90155" lon="5.18072">
        <ele>239.8</ele>
        <time>2021-06-29T17:04:37Z</time>
      </trkpt>
      <trkpt lat="43.90138" lon="5.18084">
        <ele>239.2</ele>
        <time>2021-06-29T17:04:49Z</time>
      </trkpt>
      <trkpt lat="43.90135" lon="5.18087">
        <ele>239</ele>
        <time>2021-06-29T17:04:51Z</time>
      </trkpt>
      <trkpt lat="43.90133" lon="5.18088">
        <ele>238.8</ele>
        <time>2021-06-29T17:04:52Z</time>
      </trkpt>
      <trkpt lat="43.90133" lon="5.18092">
        <ele>238.4</ele>
        <time>2021-06-29T17:04:54Z</time>
      </trkpt>
      <trkpt lat="43.90134" lon="5.18095">
        <ele>238.2</ele>
        <time>2021-06-29T17:04:56Z</time>
      </trkpt>
      <trkpt lat="43.90134" lon="5.18095">
        <ele>238</ele>
        <time>2021-06-29T17:04:58Z</time>
      </trkpt>
      <trkpt lat="43.90134" lon="5.18095">
        <ele>238</ele>
        <time>2021-06-29T17:04:59Z</time>
      </trkpt>
      <trkpt lat="43.90139" lon="5.18085">
        <ele>238.6</ele>
        <time>2021-06-29T17:06:28Z</time>
      </trkpt>
      <trkpt lat="43.9014" lon="5.18098">
        <ele>238.2</ele>
        <time>2021-06-29T17:07:13Z</time>
      </trkpt>
      <trkpt lat="43.9015" lon="5.18111">
        <ele>237</ele>
        <time>2021-06-29T17:07:23Z</time>
      </trkpt>
      <trkpt lat="43.90154" lon="5.18122">
        <ele>235.8</ele>
        <time>2021-06-29T17:07:30Z</time>
      </trkpt>
      <trkpt lat="43.90155" lon="5.18124">
        <ele>235.6</ele>
        <time>2021-06-29T17:07:31Z</time>
      </trkpt>
      <trkpt lat="43.90156" lon="5.18128">
        <ele>234.8</ele>
        <time>2021-06-29T17:07:34Z</time>
      </trkpt>
      <trkpt lat="43.90159" lon="5.1813">
        <ele>233.8</ele>
        <time>2021-06-29T17:07:37Z</time>
      </trkpt>
      <trkpt lat="43.90164" lon="5.1813">
        <ele>232.6</ele>
        <time>2021-06-29T17:07:41Z</time>
      </trkpt>
      <trkpt lat="43.9017" lon="5.1813">
        <ele>231.4</ele>
        <time>2021-06-29T17:07:46Z</time>
      </trkpt>
      <trkpt lat="43.90175" lon="5.18132">
        <ele>230.4</ele>
        <time>2021-06-29T17:07:50Z</time>
      </trkpt>
      <trkpt lat="43.90179" lon="5.18133">
        <ele>229.6</ele>
        <time>2021-06-29T17:07:53Z</time>
      </trkpt>
      <trkpt lat="43.90179" lon="5.18135">
        <ele>229.4</ele>
        <time>2021-06-29T17:07:54Z</time>
      </trkpt>
      <trkpt lat="43.9018" lon="5.18137">
        <ele>229</ele>
        <time>2021-06-29T17:07:55Z</time>
      </trkpt>
      <trkpt lat="43.90178" lon="5.18141">
        <ele>228.2</ele>
        <time>2021-06-29T17:07:58Z</time>
      </trkpt>
      <trkpt lat="43.90167" lon="5.18146">
        <ele>227.4</ele>
        <time>2021-06-29T17:08:06Z</time>
      </trkpt>
      <trkpt lat="43.90167" lon="5.18149">
        <ele>227</ele>
        <time>2021-06-29T17:08:08Z</time>
      </trkpt>
      <trkpt lat="43.90168" lon="5.18151">
        <ele>226.6</ele>
        <time>2021-06-29T17:08:09Z</time>
      </trkpt>
      <trkpt lat="43.90171" lon="5.18152">
        <ele>226</ele>
        <time>2021-06-29T17:08:11Z</time>
      </trkpt>
      <trkpt lat="43.90172" lon="5.18151">
        <ele>225.8</ele>
        <time>2021-06-29T17:08:12Z</time>
      </trkpt>
      <trkpt lat="43.90175" lon="5.1815">
        <ele>225.4</ele>
        <time>2021-06-29T17:08:14Z</time>
      </trkpt>
      <trkpt lat="43.90177" lon="5.1815">
        <ele>224.8</ele>
        <time>2021-06-29T17:08:16Z</time>
      </trkpt>
      <trkpt lat="43.90181" lon="5.1815">
        <ele>223.8</ele>
        <time>2021-06-29T17:08:20Z</time>
      </trkpt>
      <trkpt lat="43.90183" lon="5.1815">
        <ele>223.6</ele>
        <time>2021-06-29T17:08:21Z</time>
      </trkpt>
      <trkpt lat="43.90187" lon="5.18153">
        <ele>223</ele>
        <time>2021-06-29T17:08:25Z</time>
      </trkpt>
      <trkpt lat="43.90187" lon="5.18154">
        <ele>222.4</ele>
        <time>2021-06-29T17:08:26Z</time>
      </trkpt>
      <trkpt lat="43.90188" lon="5.18155">
        <ele>222</ele>
        <time>2021-06-29T17:08:27Z</time>
      </trkpt>
      <trkpt lat="43.90189" lon="5.18159">
        <ele>221.4</ele>
        <time>2021-06-29T17:08:29Z</time>
      </trkpt>
      <trkpt lat="43.90189" lon="5.18165">
        <ele>220.4</ele>
        <time>2021-06-29T17:08:33Z</time>
      </trkpt>
      <trkpt lat="43.90191" lon="5.18174">
        <ele>219.2</ele>
        <time>2021-06-29T17:08:37Z</time>
      </trkpt>
      <trkpt lat="43.90193" lon="5.18181">
        <ele>218.2</ele>
        <time>2021-06-29T17:08:41Z</time>
      </trkpt>
      <trkpt lat="43.90194" lon="5.18188">
        <ele>217.2</ele>
        <time>2021-06-29T17:08:44Z</time>
      </trkpt>
      <trkpt lat="43.90194" lon="5.18192">
        <ele>216.8</ele>
        <time>2021-06-29T17:08:46Z</time>
      </trkpt>
      <trkpt lat="43.90195" lon="5.18199">
        <ele>216</ele>
        <time>2021-06-29T17:08:49Z</time>
      </trkpt>
      <trkpt lat="43.90196" lon="5.18206">
        <ele>215</ele>
        <time>2021-06-29T17:08:53Z</time>
      </trkpt>
      <trkpt lat="43.90198" lon="5.18213">
        <ele>213.8</ele>
        <time>2021-06-29T17:08:57Z</time>
      </trkpt>
      <trkpt lat="43.90203" lon="5.18225">
        <ele>214.6</ele>
        <time>2021-06-29T17:09:04Z</time>
      </trkpt>
      <trkpt lat="43.90203" lon="5.18227">
        <ele>214.8</ele>
        <time>2021-06-29T17:09:05Z</time>
      </trkpt>
      <trkpt lat="43.90206" lon="5.18237">
        <ele>216</ele>
        <time>2021-06-29T17:09:12Z</time>
      </trkpt>
      <trkpt lat="43.90206" lon="5.18239">
        <ele>216.6</ele>
        <time>2021-06-29T17:09:14Z</time>
      </trkpt>
      <trkpt lat="43.90208" lon="5.18244">
        <ele>217.2</ele>
        <time>2021-06-29T17:09:17Z</time>
      </trkpt>
      <trkpt lat="43.90208" lon="5.18246">
        <ele>217.8</ele>
        <time>2021-06-29T17:09:19Z</time>
      </trkpt>
      <trkpt lat="43.90208" lon="5.18246">
        <ele>218.2</ele>
        <time>2021-06-29T17:09:22Z</time>
      </trkpt>
      <trkpt lat="43.90212" lon="5.18235">
        <ele>218.6</ele>
        <time>2021-06-29T17:09:57Z</time>
      </trkpt>
      <trkpt lat="43.90225" lon="5.18217">
        <ele>218.8</ele>
        <time>2021-06-29T17:10:08Z</time>
      </trkpt>
      <trkpt lat="43.90231" lon="5.18209">
        <ele>219.4</ele>
        <time>2021-06-29T17:10:13Z</time>
      </trkpt>
      <trkpt lat="43.90241" lon="5.18194">
        <ele>219</ele>
        <time>2021-06-29T17:10:23Z</time>
      </trkpt>
      <trkpt lat="43.90256" lon="5.18177">
        <ele>220.2</ele>
        <time>2021-06-29T17:10:35Z</time>
      </trkpt>
      <trkpt lat="43.90256" lon="5.18175">
        <ele>220.4</ele>
        <time>2021-06-29T17:10:36Z</time>
      </trkpt>
      <trkpt lat="43.90259" lon="5.18156">
        <ele>221.4</ele>
        <time>2021-06-29T17:10:45Z</time>
      </trkpt>
      <trkpt lat="43.90269" lon="5.18135">
        <ele>220.8</ele>
        <time>2021-06-29T17:10:57Z</time>
      </trkpt>
      <trkpt lat="43.90269" lon="5.18133">
        <ele>220.8</ele>
        <time>2021-06-29T17:10:58Z</time>
      </trkpt>
      <trkpt lat="43.90272" lon="5.18118">
        <ele>220.4</ele>
        <time>2021-06-29T17:11:04Z</time>
      </trkpt>
      <trkpt lat="43.90272" lon="5.18112">
        <ele>220</ele>
        <time>2021-06-29T17:11:06Z</time>
      </trkpt>
      <trkpt lat="43.90279" lon="5.18092">
        <ele>219.2</ele>
        <time>2021-06-29T17:11:16Z</time>
      </trkpt>
      <trkpt lat="43.90286" lon="5.18076">
        <ele>220.4</ele>
        <time>2021-06-29T17:11:25Z</time>
      </trkpt>
      <trkpt lat="43.90295" lon="5.18053">
        <ele>220</ele>
        <time>2021-06-29T17:11:36Z</time>
      </trkpt>
      <trkpt lat="43.90297" lon="5.1805">
        <ele>220</ele>
        <time>2021-06-29T17:11:38Z</time>
      </trkpt>
      <trkpt lat="43.90311" lon="5.1804">
        <ele>221.4</ele>
        <time>2021-06-29T17:11:48Z</time>
      </trkpt>
      <trkpt lat="43.9033" lon="5.18035">
        <ele>221.8</ele>
        <time>2021-06-29T17:12:00Z</time>
      </trkpt>
      <trkpt lat="43.90336" lon="5.18033">
        <ele>221.6</ele>
        <time>2021-06-29T17:12:04Z</time>
      </trkpt>
      <trkpt lat="43.9035" lon="5.18019">
        <ele>221.8</ele>
        <time>2021-06-29T17:12:14Z</time>
      </trkpt>
      <trkpt lat="43.9036" lon="5.18004">
        <ele>220.2</ele>
        <time>2021-06-29T17:12:23Z</time>
      </trkpt>
      <trkpt lat="43.90361" lon="5.17995">
        <ele>220.4</ele>
        <time>2021-06-29T17:12:28Z</time>
      </trkpt>
      <trkpt lat="43.90364" lon="5.17993">
        <ele>221.4</ele>
        <time>2021-06-29T17:12:30Z</time>
      </trkpt>
      <trkpt lat="43.90378" lon="5.17989">
        <ele>222</ele>
        <time>2021-06-29T17:12:39Z</time>
      </trkpt>
      <trkpt lat="43.90387" lon="5.17985">
        <ele>222.4</ele>
        <time>2021-06-29T17:12:44Z</time>
      </trkpt>
      <trkpt lat="43.90405" lon="5.1798">
        <ele>222.4</ele>
        <time>2021-06-29T17:12:54Z</time>
      </trkpt>
      <trkpt lat="43.90414" lon="5.17973">
        <ele>223</ele>
        <time>2021-06-29T17:13:03Z</time>
      </trkpt>
      <trkpt lat="43.90416" lon="5.17968">
        <ele>223.8</ele>
        <time>2021-06-29T17:13:06Z</time>
      </trkpt>
      <trkpt lat="43.90416" lon="5.17962">
        <ele>224.8</ele>
        <time>2021-06-29T17:13:09Z</time>
      </trkpt>
      <trkpt lat="43.90411" lon="5.17937">
        <ele>225.4</ele>
        <time>2021-06-29T17:13:19Z</time>
      </trkpt>
      <trkpt lat="43.9041" lon="5.17934">
        <ele>226.2</ele>
        <time>2021-06-29T17:13:21Z</time>
      </trkpt>
      <trkpt lat="43.90408" lon="5.17922">
        <ele>226.4</ele>
        <time>2021-06-29T17:13:27Z</time>
      </trkpt>
      <trkpt lat="43.9041" lon="5.17919">
        <ele>226.2</ele>
        <time>2021-06-29T17:13:29Z</time>
      </trkpt>
      <trkpt lat="43.90413" lon="5.17916">
        <ele>226.4</ele>
        <time>2021-06-29T17:13:32Z</time>
      </trkpt>
      <trkpt lat="43.9042" lon="5.17912">
        <ele>227.2</ele>
        <time>2021-06-29T17:13:37Z</time>
      </trkpt>
      <trkpt lat="43.9042" lon="5.17906">
        <ele>228.4</ele>
        <time>2021-06-29T17:13:40Z</time>
      </trkpt>
      <trkpt lat="43.90419" lon="5.17904">
        <ele>228.8</ele>
        <time>2021-06-29T17:13:41Z</time>
      </trkpt>
      <trkpt lat="43.90417" lon="5.17896">
        <ele>229.6</ele>
        <time>2021-06-29T17:13:44Z</time>
      </trkpt>
      <trkpt lat="43.90411" lon="5.17872">
        <ele>230</ele>
        <time>2021-06-29T17:13:58Z</time>
      </trkpt>
      <trkpt lat="43.9041" lon="5.17846">
        <ele>230.2</ele>
        <time>2021-06-29T17:14:08Z</time>
      </trkpt>
      <trkpt lat="43.90411" lon="5.17844">
        <ele>230</ele>
        <time>2021-06-29T17:14:09Z</time>
      </trkpt>
      <trkpt lat="43.90418" lon="5.17824">
        <ele>230.4</ele>
        <time>2021-06-29T17:14:18Z</time>
      </trkpt>
      <trkpt lat="43.90421" lon="5.17823">
        <ele>230.8</ele>
        <time>2021-06-29T17:14:20Z</time>
      </trkpt>
      <trkpt lat="43.90424" lon="5.17819">
        <ele>231.6</ele>
        <time>2021-06-29T17:14:23Z</time>
      </trkpt>
      <trkpt lat="43.90425" lon="5.17812">
        <ele>231.8</ele>
        <time>2021-06-29T17:14:26Z</time>
      </trkpt>
      <trkpt lat="43.90427" lon="5.17809">
        <ele>231.6</ele>
        <time>2021-06-29T17:14:28Z</time>
      </trkpt>
      <trkpt lat="43.90444" lon="5.17801">
        <ele>232.4</ele>
        <time>2021-06-29T17:14:41Z</time>
      </trkpt>
      <trkpt lat="43.90456" lon="5.17789">
        <ele>232.8</ele>
        <time>2021-06-29T17:14:52Z</time>
      </trkpt>
      <trkpt lat="43.90471" lon="5.17773">
        <ele>233.4</ele>
        <time>2021-06-29T17:15:02Z</time>
      </trkpt>
      <trkpt lat="43.90484" lon="5.17757">
        <ele>233.8</ele>
        <time>2021-06-29T17:15:11Z</time>
      </trkpt>
      <trkpt lat="43.90493" lon="5.17748">
        <ele>234.8</ele>
        <time>2021-06-29T17:15:18Z</time>
      </trkpt>
      <trkpt lat="43.90508" lon="5.17734">
        <ele>235</ele>
        <time>2021-06-29T17:15:31Z</time>
      </trkpt>
      <trkpt lat="43.90518" lon="5.1772">
        <ele>236</ele>
        <time>2021-06-29T17:15:39Z</time>
      </trkpt>
      <trkpt lat="43.90533" lon="5.17701">
        <ele>235.6</ele>
        <time>2021-06-29T17:15:50Z</time>
      </trkpt>
      <trkpt lat="43.90541" lon="5.17678">
        <ele>235.4</ele>
        <time>2021-06-29T17:16:00Z</time>
      </trkpt>
      <trkpt lat="43.90547" lon="5.17671">
        <ele>234.8</ele>
        <time>2021-06-29T17:16:05Z</time>
      </trkpt>
      <trkpt lat="43.90554" lon="5.17665">
        <ele>233.8</ele>
        <time>2021-06-29T17:16:10Z</time>
      </trkpt>
      <trkpt lat="43.9057" lon="5.17651">
        <ele>233.6</ele>
        <time>2021-06-29T17:16:20Z</time>
      </trkpt>
      <trkpt lat="43.90571" lon="5.1765">
        <ele>233.6</ele>
        <time>2021-06-29T17:16:21Z</time>
      </trkpt>
      <trkpt lat="43.90578" lon="5.17641">
        <ele>233.8</ele>
        <time>2021-06-29T17:16:27Z</time>
      </trkpt>
      <trkpt lat="43.90592" lon="5.17624">
        <ele>234</ele>
        <time>2021-06-29T17:16:38Z</time>
      </trkpt>
      <trkpt lat="43.90597" lon="5.17614">
        <ele>233.8</ele>
        <time>2021-06-29T17:16:44Z</time>
      </trkpt>
      <trkpt lat="43.90603" lon="5.17605">
        <ele>232.6</ele>
        <time>2021-06-29T17:16:49Z</time>
      </trkpt>
      <trkpt lat="43.90621" lon="5.17593">
        <ele>233.8</ele>
        <time>2021-06-29T17:17:04Z</time>
      </trkpt>
      <trkpt lat="43.90632" lon="5.17585">
        <ele>234.8</ele>
        <time>2021-06-29T17:17:11Z</time>
      </trkpt>
      <trkpt lat="43.90638" lon="5.17581">
        <ele>236</ele>
        <time>2021-06-29T17:17:14Z</time>
      </trkpt>
      <trkpt lat="43.90654" lon="5.17574">
        <ele>237.2</ele>
        <time>2021-06-29T17:17:22Z</time>
      </trkpt>
      <trkpt lat="43.90671" lon="5.1757">
        <ele>237.8</ele>
        <time>2021-06-29T17:17:33Z</time>
      </trkpt>
      <trkpt lat="43.9068" lon="5.17554">
        <ele>238.4</ele>
        <time>2021-06-29T17:17:45Z</time>
      </trkpt>
      <trkpt lat="43.90688" lon="5.17549">
        <ele>239.4</ele>
        <time>2021-06-29T17:17:51Z</time>
      </trkpt>
      <trkpt lat="43.90695" lon="5.17547">
        <ele>240.4</ele>
        <time>2021-06-29T17:17:55Z</time>
      </trkpt>
      <trkpt lat="43.90714" lon="5.17544">
        <ele>240.8</ele>
        <time>2021-06-29T17:18:06Z</time>
      </trkpt>
      <trkpt lat="43.90726" lon="5.17541">
        <ele>241.6</ele>
        <time>2021-06-29T17:18:13Z</time>
      </trkpt>
      <trkpt lat="43.90741" lon="5.1754">
        <ele>242.2</ele>
        <time>2021-06-29T17:18:24Z</time>
      </trkpt>
      <trkpt lat="43.90743" lon="5.17542">
        <ele>242.2</ele>
        <time>2021-06-29T17:18:27Z</time>
      </trkpt>
      <trkpt lat="43.90757" lon="5.17548">
        <ele>241.6</ele>
        <time>2021-06-29T17:18:37Z</time>
      </trkpt>
      <trkpt lat="43.90776" lon="5.17551">
        <ele>242.2</ele>
        <time>2021-06-29T17:18:48Z</time>
      </trkpt>
      <trkpt lat="43.90779" lon="5.17552">
        <ele>242.4</ele>
        <time>2021-06-29T17:18:50Z</time>
      </trkpt>
      <trkpt lat="43.90782" lon="5.17554">
        <ele>242.4</ele>
        <time>2021-06-29T17:18:52Z</time>
      </trkpt>
      <trkpt lat="43.90794" lon="5.17577">
        <ele>242</ele>
        <time>2021-06-29T17:19:03Z</time>
      </trkpt>
      <trkpt lat="43.90798" lon="5.17585">
        <ele>241.6</ele>
        <time>2021-06-29T17:19:07Z</time>
      </trkpt>
      <trkpt lat="43.90814" lon="5.17602">
        <ele>241.6</ele>
        <time>2021-06-29T17:19:19Z</time>
      </trkpt>
      <trkpt lat="43.90832" lon="5.17611">
        <ele>241.8</ele>
        <time>2021-06-29T17:19:29Z</time>
      </trkpt>
      <trkpt lat="43.90842" lon="5.17621">
        <ele>242.2</ele>
        <time>2021-06-29T17:19:37Z</time>
      </trkpt>
      <trkpt lat="43.9086" lon="5.17624">
        <ele>242.8</ele>
        <time>2021-06-29T17:19:46Z</time>
      </trkpt>
      <trkpt lat="43.90867" lon="5.17621">
        <ele>243.8</ele>
        <time>2021-06-29T17:19:52Z</time>
      </trkpt>
      <trkpt lat="43.90872" lon="5.17616">
        <ele>244</ele>
        <time>2021-06-29T17:19:56Z</time>
      </trkpt>
      <trkpt lat="43.90881" lon="5.17618">
        <ele>244.4</ele>
        <time>2021-06-29T17:20:03Z</time>
      </trkpt>
      <trkpt lat="43.9089" lon="5.17624">
        <ele>244.6</ele>
        <time>2021-06-29T17:20:10Z</time>
      </trkpt>
      <trkpt lat="43.90898" lon="5.17626">
        <ele>244.8</ele>
        <time>2021-06-29T17:20:15Z</time>
      </trkpt>
      <trkpt lat="43.90907" lon="5.17634">
        <ele>245.2</ele>
        <time>2021-06-29T17:20:21Z</time>
      </trkpt>
      <trkpt lat="43.90925" lon="5.17641">
        <ele>244.2</ele>
        <time>2021-06-29T17:20:31Z</time>
      </trkpt>
      <trkpt lat="43.90943" lon="5.1764">
        <ele>243.8</ele>
        <time>2021-06-29T17:20:41Z</time>
      </trkpt>
      <trkpt lat="43.90946" lon="5.1764">
        <ele>243.8</ele>
        <time>2021-06-29T17:20:42Z</time>
      </trkpt>
      <trkpt lat="43.90965" lon="5.17636">
        <ele>243.8</ele>
        <time>2021-06-29T17:20:53Z</time>
      </trkpt>
      <trkpt lat="43.9098" lon="5.17629">
        <ele>245</ele>
        <time>2021-06-29T17:21:02Z</time>
      </trkpt>
      <trkpt lat="43.90999" lon="5.17626">
        <ele>245.4</ele>
        <time>2021-06-29T17:21:13Z</time>
      </trkpt>
      <trkpt lat="43.91005" lon="5.17625">
        <ele>245.6</ele>
        <time>2021-06-29T17:21:16Z</time>
      </trkpt>
      <trkpt lat="43.91022" lon="5.17618">
        <ele>245.8</ele>
        <time>2021-06-29T17:21:25Z</time>
      </trkpt>
      <trkpt lat="43.91024" lon="5.17618">
        <ele>246</ele>
        <time>2021-06-29T17:21:26Z</time>
      </trkpt>
      <trkpt lat="43.91041" lon="5.1761">
        <ele>245</ele>
        <time>2021-06-29T17:21:37Z</time>
      </trkpt>
      <trkpt lat="43.91049" lon="5.176">
        <ele>247</ele>
        <time>2021-06-29T17:21:44Z</time>
      </trkpt>
      <trkpt lat="43.91068" lon="5.17598">
        <ele>248</ele>
        <time>2021-06-29T17:21:56Z</time>
      </trkpt>
      <trkpt lat="43.91071" lon="5.17598">
        <ele>248</ele>
        <time>2021-06-29T17:21:59Z</time>
      </trkpt>
      <trkpt lat="43.91079" lon="5.17595">
        <ele>247.8</ele>
        <time>2021-06-29T17:22:05Z</time>
      </trkpt>
      <trkpt lat="43.91084" lon="5.17588">
        <ele>247.2</ele>
        <time>2021-06-29T17:22:11Z</time>
      </trkpt>
      <trkpt lat="43.91089" lon="5.17589">
        <ele>247.4</ele>
        <time>2021-06-29T17:22:15Z</time>
      </trkpt>
      <trkpt lat="43.91094" lon="5.1759">
        <ele>247.8</ele>
        <time>2021-06-29T17:22:18Z</time>
      </trkpt>
      <trkpt lat="43.91098" lon="5.17591">
        <ele>248</ele>
        <time>2021-06-29T17:22:20Z</time>
      </trkpt>
      <trkpt lat="43.91116" lon="5.17596">
        <ele>248</ele>
        <time>2021-06-29T17:22:29Z</time>
      </trkpt>
      <trkpt lat="43.91134" lon="5.17588">
        <ele>248.4</ele>
        <time>2021-06-29T17:22:39Z</time>
      </trkpt>
      <trkpt lat="43.9114" lon="5.17586">
        <ele>249.2</ele>
        <time>2021-06-29T17:22:43Z</time>
      </trkpt>
      <trkpt lat="43.91148" lon="5.17582">
        <ele>250.4</ele>
        <time>2021-06-29T17:22:47Z</time>
      </trkpt>
      <trkpt lat="43.91165" lon="5.17572">
        <ele>251.4</ele>
        <time>2021-06-29T17:23:00Z</time>
      </trkpt>
      <trkpt lat="43.91166" lon="5.17573">
        <ele>251.4</ele>
        <time>2021-06-29T17:23:01Z</time>
      </trkpt>
      <trkpt lat="43.91173" lon="5.17573">
        <ele>251.8</ele>
        <time>2021-06-29T17:23:08Z</time>
      </trkpt>
      <trkpt lat="43.91179" lon="5.17576">
        <ele>252.2</ele>
        <time>2021-06-29T17:23:12Z</time>
      </trkpt>
      <trkpt lat="43.9118" lon="5.17576">
        <ele>252.6</ele>
        <time>2021-06-29T17:23:13Z</time>
      </trkpt>
      <trkpt lat="43.91192" lon="5.17574">
        <ele>253.6</ele>
        <time>2021-06-29T17:23:19Z</time>
      </trkpt>
      <trkpt lat="43.91209" lon="5.17565">
        <ele>254.2</ele>
        <time>2021-06-29T17:23:28Z</time>
      </trkpt>
      <trkpt lat="43.91227" lon="5.17571">
        <ele>254</ele>
        <time>2021-06-29T17:23:38Z</time>
      </trkpt>
      <trkpt lat="43.91246" lon="5.17576">
        <ele>254</ele>
        <time>2021-06-29T17:23:47Z</time>
      </trkpt>
      <trkpt lat="43.91254" lon="5.17575">
        <ele>254</ele>
        <time>2021-06-29T17:23:53Z</time>
      </trkpt>
      <trkpt lat="43.91255" lon="5.17572">
        <ele>253.4</ele>
        <time>2021-06-29T17:23:55Z</time>
      </trkpt>
      <trkpt lat="43.91266" lon="5.17563">
        <ele>255</ele>
        <time>2021-06-29T17:24:03Z</time>
      </trkpt>
      <trkpt lat="43.91269" lon="5.17561">
        <ele>256</ele>
        <time>2021-06-29T17:24:06Z</time>
      </trkpt>
      <trkpt lat="43.91281" lon="5.17563">
        <ele>257</ele>
        <time>2021-06-29T17:24:14Z</time>
      </trkpt>
      <trkpt lat="43.91289" lon="5.17574">
        <ele>257.2</ele>
        <time>2021-06-29T17:24:21Z</time>
      </trkpt>
      <trkpt lat="43.91293" lon="5.17588">
        <ele>256.2</ele>
        <time>2021-06-29T17:24:27Z</time>
      </trkpt>
      <trkpt lat="43.91294" lon="5.17589">
        <ele>256</ele>
        <time>2021-06-29T17:24:28Z</time>
      </trkpt>
      <trkpt lat="43.91297" lon="5.17589">
        <ele>255.2</ele>
        <time>2021-06-29T17:24:30Z</time>
      </trkpt>
      <trkpt lat="43.91299" lon="5.17589">
        <ele>254.8</ele>
        <time>2021-06-29T17:24:31Z</time>
      </trkpt>
      <trkpt lat="43.91316" lon="5.17592">
        <ele>255.6</ele>
        <time>2021-06-29T17:24:42Z</time>
      </trkpt>
      <trkpt lat="43.91317" lon="5.17593">
        <ele>255.8</ele>
        <time>2021-06-29T17:24:43Z</time>
      </trkpt>
      <trkpt lat="43.9132" lon="5.17597">
        <ele>256.2</ele>
        <time>2021-06-29T17:24:46Z</time>
      </trkpt>
      <trkpt lat="43.91324" lon="5.17602">
        <ele>256.4</ele>
        <time>2021-06-29T17:24:50Z</time>
      </trkpt>
      <trkpt lat="43.91327" lon="5.17604">
        <ele>256.8</ele>
        <time>2021-06-29T17:24:52Z</time>
      </trkpt>
      <trkpt lat="43.91337" lon="5.17615">
        <ele>258</ele>
        <time>2021-06-29T17:24:59Z</time>
      </trkpt>
      <trkpt lat="43.91351" lon="5.17624">
        <ele>259</ele>
        <time>2021-06-29T17:25:07Z</time>
      </trkpt>
      <trkpt lat="43.91364" lon="5.17628">
        <ele>260</ele>
        <time>2021-06-29T17:25:14Z</time>
      </trkpt>
      <trkpt lat="43.91369" lon="5.17629">
        <ele>260.2</ele>
        <time>2021-06-29T17:25:18Z</time>
      </trkpt>
      <trkpt lat="43.91376" lon="5.17644">
        <ele>260.2</ele>
        <time>2021-06-29T17:25:27Z</time>
      </trkpt>
      <trkpt lat="43.9139" lon="5.17653">
        <ele>261.2</ele>
        <time>2021-06-29T17:25:37Z</time>
      </trkpt>
      <trkpt lat="43.91397" lon="5.17656">
        <ele>261.6</ele>
        <time>2021-06-29T17:25:41Z</time>
      </trkpt>
      <trkpt lat="43.91401" lon="5.17658">
        <ele>262</ele>
        <time>2021-06-29T17:25:44Z</time>
      </trkpt>
      <trkpt lat="43.91409" lon="5.17659">
        <ele>262.2</ele>
        <time>2021-06-29T17:25:49Z</time>
      </trkpt>
      <trkpt lat="43.91411" lon="5.17659">
        <ele>262.2</ele>
        <time>2021-06-29T17:25:50Z</time>
      </trkpt>
      <trkpt lat="43.91416" lon="5.17664">
        <ele>262</ele>
        <time>2021-06-29T17:25:54Z</time>
      </trkpt>
      <trkpt lat="43.91425" lon="5.17669">
        <ele>263</ele>
        <time>2021-06-29T17:26:00Z</time>
      </trkpt>
      <trkpt lat="43.91429" lon="5.17669">
        <ele>263.4</ele>
        <time>2021-06-29T17:26:02Z</time>
      </trkpt>
      <trkpt lat="43.91436" lon="5.17669">
        <ele>264.2</ele>
        <time>2021-06-29T17:26:06Z</time>
      </trkpt>
      <trkpt lat="43.91438" lon="5.1767">
        <ele>264.4</ele>
        <time>2021-06-29T17:26:07Z</time>
      </trkpt>
      <trkpt lat="43.91443" lon="5.17677">
        <ele>265.8</ele>
        <time>2021-06-29T17:26:11Z</time>
      </trkpt>
      <trkpt lat="43.91446" lon="5.17679">
        <ele>266</ele>
        <time>2021-06-29T17:26:14Z</time>
      </trkpt>
      <trkpt lat="43.91456" lon="5.17691">
        <ele>264.6</ele>
        <time>2021-06-29T17:26:22Z</time>
      </trkpt>
      <trkpt lat="43.91461" lon="5.17694">
        <ele>264.2</ele>
        <time>2021-06-29T17:26:26Z</time>
      </trkpt>
      <trkpt lat="43.91469" lon="5.17687">
        <ele>263.6</ele>
        <time>2021-06-29T17:26:31Z</time>
      </trkpt>
      <trkpt lat="43.91473" lon="5.17682">
        <ele>262.2</ele>
        <time>2021-06-29T17:26:34Z</time>
      </trkpt>
      <trkpt lat="43.91477" lon="5.17675">
        <ele>261</ele>
        <time>2021-06-29T17:26:38Z</time>
      </trkpt>
      <trkpt lat="43.91477" lon="5.17674">
        <ele>261</ele>
        <time>2021-06-29T17:26:39Z</time>
      </trkpt>
      <trkpt lat="43.91483" lon="5.17666">
        <ele>262.2</ele>
        <time>2021-06-29T17:26:46Z</time>
      </trkpt>
      <trkpt lat="43.91484" lon="5.17663">
        <ele>262.8</ele>
        <time>2021-06-29T17:26:48Z</time>
      </trkpt>
      <trkpt lat="43.91485" lon="5.17661">
        <ele>263.2</ele>
        <time>2021-06-29T17:26:49Z</time>
      </trkpt>
      <trkpt lat="43.91487" lon="5.17658">
        <ele>263.8</ele>
        <time>2021-06-29T17:26:51Z</time>
      </trkpt>
      <trkpt lat="43.91488" lon="5.17654">
        <ele>264.2</ele>
        <time>2021-06-29T17:26:53Z</time>
      </trkpt>
      <trkpt lat="43.91477" lon="5.17637">
        <ele>264.2</ele>
        <time>2021-06-29T17:27:04Z</time>
      </trkpt>
      <trkpt lat="43.91459" lon="5.17629">
        <ele>263.4</ele>
        <time>2021-06-29T17:27:15Z</time>
      </trkpt>
      <trkpt lat="43.91455" lon="5.17627">
        <ele>263.2</ele>
        <time>2021-06-29T17:27:17Z</time>
      </trkpt>
      <trkpt lat="43.91436" lon="5.17627">
        <ele>262.6</ele>
        <time>2021-06-29T17:27:28Z</time>
      </trkpt>
      <trkpt lat="43.91417" lon="5.17625">
        <ele>262.4</ele>
        <time>2021-06-29T17:27:40Z</time>
      </trkpt>
      <trkpt lat="43.91414" lon="5.17624">
        <ele>262.2</ele>
        <time>2021-06-29T17:27:42Z</time>
      </trkpt>
      <trkpt lat="43.91406" lon="5.17622">
        <ele>260.8</ele>
        <time>2021-06-29T17:27:47Z</time>
      </trkpt>
      <trkpt lat="43.91392" lon="5.1762">
        <ele>259.8</ele>
        <time>2021-06-29T17:27:55Z</time>
      </trkpt>
      <trkpt lat="43.91375" lon="5.17615">
        <ele>258.8</ele>
        <time>2021-06-29T17:28:04Z</time>
      </trkpt>
      <trkpt lat="43.9137" lon="5.17613">
        <ele>258.6</ele>
        <time>2021-06-29T17:28:07Z</time>
      </trkpt>
      <trkpt lat="43.91352" lon="5.17613">
        <ele>257.8</ele>
        <time>2021-06-29T17:28:19Z</time>
      </trkpt>
      <trkpt lat="43.91333" lon="5.1761">
        <ele>258</ele>
        <time>2021-06-29T17:28:30Z</time>
      </trkpt>
      <trkpt lat="43.91327" lon="5.17606">
        <ele>257.6</ele>
        <time>2021-06-29T17:28:34Z</time>
      </trkpt>
      <trkpt lat="43.9132" lon="5.17597">
        <ele>256.6</ele>
        <time>2021-06-29T17:28:40Z</time>
      </trkpt>
      <trkpt lat="43.9131" lon="5.17592">
        <ele>255.6</ele>
        <time>2021-06-29T17:28:46Z</time>
      </trkpt>
      <trkpt lat="43.91304" lon="5.17594">
        <ele>254.6</ele>
        <time>2021-06-29T17:28:50Z</time>
      </trkpt>
      <trkpt lat="43.91301" lon="5.17592">
        <ele>254.4</ele>
        <time>2021-06-29T17:28:52Z</time>
      </trkpt>
      <trkpt lat="43.913" lon="5.17591">
        <ele>254.4</ele>
        <time>2021-06-29T17:28:53Z</time>
      </trkpt>
      <trkpt lat="43.91298" lon="5.17585">
        <ele>254.8</ele>
        <time>2021-06-29T17:28:56Z</time>
      </trkpt>
      <trkpt lat="43.91297" lon="5.17579">
        <ele>255.8</ele>
        <time>2021-06-29T17:28:59Z</time>
      </trkpt>
      <trkpt lat="43.91294" lon="5.17573">
        <ele>256.4</ele>
        <time>2021-06-29T17:29:02Z</time>
      </trkpt>
      <trkpt lat="43.91275" lon="5.1757">
        <ele>256.2</ele>
        <time>2021-06-29T17:29:12Z</time>
      </trkpt>
      <trkpt lat="43.91259" lon="5.17571">
        <ele>255.6</ele>
        <time>2021-06-29T17:29:21Z</time>
      </trkpt>
      <trkpt lat="43.91258" lon="5.17575">
        <ele>255.2</ele>
        <time>2021-06-29T17:29:24Z</time>
      </trkpt>
      <trkpt lat="43.91256" lon="5.1758">
        <ele>254.8</ele>
        <time>2021-06-29T17:29:26Z</time>
      </trkpt>
      <trkpt lat="43.91252" lon="5.17583">
        <ele>253.6</ele>
        <time>2021-06-29T17:29:29Z</time>
      </trkpt>
      <trkpt lat="43.91241" lon="5.17582">
        <ele>254.6</ele>
        <time>2021-06-29T17:29:37Z</time>
      </trkpt>
      <trkpt lat="43.91222" lon="5.17576">
        <ele>254.8</ele>
        <time>2021-06-29T17:29:49Z</time>
      </trkpt>
      <trkpt lat="43.91203" lon="5.17578">
        <ele>254.8</ele>
        <time>2021-06-29T17:30:01Z</time>
      </trkpt>
      <trkpt lat="43.91184" lon="5.17575">
        <ele>253.8</ele>
        <time>2021-06-29T17:30:11Z</time>
      </trkpt>
      <trkpt lat="43.9118" lon="5.17575">
        <ele>253.6</ele>
        <time>2021-06-29T17:30:13Z</time>
      </trkpt>
      <trkpt lat="43.91161" lon="5.17576">
        <ele>253.2</ele>
        <time>2021-06-29T17:30:23Z</time>
      </trkpt>
      <trkpt lat="43.91161" lon="5.17576">
        <ele>252.6</ele>
        <time>2021-06-29T17:30:25Z</time>
      </trkpt>
      <trkpt lat="43.91161" lon="5.17576">
        <ele>252</ele>
        <time>2021-06-29T17:30:26Z</time>
      </trkpt>
      <trkpt lat="43.91162" lon="5.17577">
        <ele>251</ele>
        <time>2021-06-29T17:30:30Z</time>
      </trkpt>
      <trkpt lat="43.91165" lon="5.1757">
        <ele>250.8</ele>
        <time>2021-06-29T17:30:55Z</time>
      </trkpt>
      <trkpt lat="43.91178" lon="5.17568">
        <ele>252</ele>
        <time>2021-06-29T17:31:03Z</time>
      </trkpt>
      <trkpt lat="43.91185" lon="5.1757">
        <ele>253.2</ele>
        <time>2021-06-29T17:31:07Z</time>
      </trkpt>
      <trkpt lat="43.91195" lon="5.17573">
        <ele>254.2</ele>
        <time>2021-06-29T17:31:14Z</time>
      </trkpt>
      <trkpt lat="43.91208" lon="5.17575">
        <ele>255.2</ele>
        <time>2021-06-29T17:31:21Z</time>
      </trkpt>
      <trkpt lat="43.91227" lon="5.17572">
        <ele>256</ele>
        <time>2021-06-29T17:31:31Z</time>
      </trkpt>
      <trkpt lat="43.91246" lon="5.17572">
        <ele>255</ele>
        <time>2021-06-29T17:31:42Z</time>
      </trkpt>
      <trkpt lat="43.91255" lon="5.17568">
        <ele>254.2</ele>
        <time>2021-06-29T17:31:49Z</time>
      </trkpt>
      <trkpt lat="43.91256" lon="5.17566">
        <ele>254.2</ele>
        <time>2021-06-29T17:31:50Z</time>
      </trkpt>
      <trkpt lat="43.91268" lon="5.17558">
        <ele>255.4</ele>
        <time>2021-06-29T17:32:00Z</time>
      </trkpt>
      <trkpt lat="43.91275" lon="5.17558">
        <ele>256.4</ele>
        <time>2021-06-29T17:32:05Z</time>
      </trkpt>
      <trkpt lat="43.91286" lon="5.17562">
        <ele>257.6</ele>
        <time>2021-06-29T17:32:13Z</time>
      </trkpt>
      <trkpt lat="43.91294" lon="5.17586">
        <ele>256.4</ele>
        <time>2021-06-29T17:32:24Z</time>
      </trkpt>
      <trkpt lat="43.91296" lon="5.17589">
        <ele>255.8</ele>
        <time>2021-06-29T17:32:26Z</time>
      </trkpt>
      <trkpt lat="43.913" lon="5.17588">
        <ele>255.4</ele>
        <time>2021-06-29T17:32:28Z</time>
      </trkpt>
      <trkpt lat="43.91308" lon="5.1759">
        <ele>255.4</ele>
        <time>2021-06-29T17:32:33Z</time>
      </trkpt>
      <trkpt lat="43.91311" lon="5.17592">
        <ele>255.6</ele>
        <time>2021-06-29T17:32:35Z</time>
      </trkpt>
      <trkpt lat="43.91319" lon="5.17599">
        <ele>256.6</ele>
        <time>2021-06-29T17:32:41Z</time>
      </trkpt>
      <trkpt lat="43.91333" lon="5.17605">
        <ele>257.6</ele>
        <time>2021-06-29T17:32:51Z</time>
      </trkpt>
      <trkpt lat="43.91351" lon="5.1761">
        <ele>257.8</ele>
        <time>2021-06-29T17:33:02Z</time>
      </trkpt>
      <trkpt lat="43.91371" lon="5.17612">
        <ele>257.2</ele>
        <time>2021-06-29T17:33:14Z</time>
      </trkpt>
      <trkpt lat="43.91374" lon="5.17613">
        <ele>259.6</ele>
        <time>2021-06-29T17:33:16Z</time>
      </trkpt>
      <trkpt lat="43.91376" lon="5.17612">
        <ele>259.6</ele>
        <time>2021-06-29T17:33:17Z</time>
      </trkpt>
      <trkpt lat="43.91391" lon="5.17613">
        <ele>260.6</ele>
        <time>2021-06-29T17:33:27Z</time>
      </trkpt>
      <trkpt lat="43.914" lon="5.1762">
        <ele>260.8</ele>
        <time>2021-06-29T17:34:05Z</time>
      </trkpt>
      <trkpt lat="43.91403" lon="5.1762">
        <ele>261</ele>
        <time>2021-06-29T17:34:07Z</time>
      </trkpt>
      <trkpt lat="43.91415" lon="5.17618">
        <ele>261.8</ele>
        <time>2021-06-29T17:34:14Z</time>
      </trkpt>
      <trkpt lat="43.91422" lon="5.17621">
        <ele>262.8</ele>
        <time>2021-06-29T17:34:20Z</time>
      </trkpt>
      <trkpt lat="43.91433" lon="5.17623">
        <ele>263.8</ele>
        <time>2021-06-29T17:34:27Z</time>
      </trkpt>
      <trkpt lat="43.91451" lon="5.17628">
        <ele>263.2</ele>
        <time>2021-06-29T17:34:37Z</time>
      </trkpt>
      <trkpt lat="43.91459" lon="5.17632">
        <ele>264.2</ele>
        <time>2021-06-29T17:34:43Z</time>
      </trkpt>
      <trkpt lat="43.91477" lon="5.17641">
        <ele>265</ele>
        <time>2021-06-29T17:34:55Z</time>
      </trkpt>
      <trkpt lat="43.91488" lon="5.17663">
        <ele>265</ele>
        <time>2021-06-29T17:35:07Z</time>
      </trkpt>
      <trkpt lat="43.9149" lon="5.17666">
        <ele>265.2</ele>
        <time>2021-06-29T17:35:10Z</time>
      </trkpt>
      <trkpt lat="43.9149" lon="5.17666">
        <ele>265.2</ele>
        <time>2021-06-29T17:35:12Z</time>
      </trkpt>
      <trkpt lat="43.91487" lon="5.17658">
        <ele>265.2</ele>
        <time>2021-06-29T17:35:51Z</time>
      </trkpt>
      <trkpt lat="43.91486" lon="5.17654">
        <ele>265.2</ele>
        <time>2021-06-29T17:35:53Z</time>
      </trkpt>
      <trkpt lat="43.91477" lon="5.17641">
        <ele>264.4</ele>
        <time>2021-06-29T17:36:04Z</time>
      </trkpt>
      <trkpt lat="43.91477" lon="5.17641">
        <ele>264.2</ele>
        <time>2021-06-29T17:36:11Z</time>
      </trkpt>
      <trkpt lat="43.91484" lon="5.17646">
        <ele>264.2</ele>
        <time>2021-06-29T17:36:34Z</time>
      </trkpt>
      <trkpt lat="43.91487" lon="5.17653">
        <ele>264.4</ele>
        <time>2021-06-29T17:36:39Z</time>
      </trkpt>
      <trkpt lat="43.9149" lon="5.17663">
        <ele>265</ele>
        <time>2021-06-29T17:36:48Z</time>
      </trkpt>
      <trkpt lat="43.91489" lon="5.17658">
        <ele>265</ele>
        <time>2021-06-29T17:37:15Z</time>
      </trkpt>
      <trkpt lat="43.91476" lon="5.1764">
        <ele>264.4</ele>
        <time>2021-06-29T17:37:27Z</time>
      </trkpt>
      <trkpt lat="43.91459" lon="5.17628">
        <ele>264.2</ele>
        <time>2021-06-29T17:37:39Z</time>
      </trkpt>
      <trkpt lat="43.9144" lon="5.17624">
        <ele>263.8</ele>
        <time>2021-06-29T17:37:50Z</time>
      </trkpt>
      <trkpt lat="43.9143" lon="5.17623">
        <ele>263.2</ele>
        <time>2021-06-29T17:37:56Z</time>
      </trkpt>
      <trkpt lat="43.91412" lon="5.17622">
        <ele>262.6</ele>
        <time>2021-06-29T17:38:06Z</time>
      </trkpt>
      <trkpt lat="43.91407" lon="5.17621">
        <ele>262</ele>
        <time>2021-06-29T17:38:09Z</time>
      </trkpt>
      <trkpt lat="43.914" lon="5.17619">
        <ele>261</ele>
        <time>2021-06-29T17:38:13Z</time>
      </trkpt>
      <trkpt lat="43.91395" lon="5.17616">
        <ele>260.4</ele>
        <time>2021-06-29T17:38:16Z</time>
      </trkpt>
      <trkpt lat="43.91386" lon="5.176">
        <ele>262</ele>
        <time>2021-06-29T17:38:26Z</time>
      </trkpt>
      <trkpt lat="43.91384" lon="5.17596">
        <ele>263.2</ele>
        <time>2021-06-29T17:38:29Z</time>
      </trkpt>
      <trkpt lat="43.9138" lon="5.17594">
        <ele>264.4</ele>
        <time>2021-06-29T17:38:32Z</time>
      </trkpt>
      <trkpt lat="43.91375" lon="5.17589">
        <ele>265.4</ele>
        <time>2021-06-29T17:38:37Z</time>
      </trkpt>
      <trkpt lat="43.91369" lon="5.17585">
        <ele>266.6</ele>
        <time>2021-06-29T17:38:42Z</time>
      </trkpt>
      <trkpt lat="43.91364" lon="5.17582">
        <ele>267.6</ele>
        <time>2021-06-29T17:38:46Z</time>
      </trkpt>
      <trkpt lat="43.91353" lon="5.17571">
        <ele>268.8</ele>
        <time>2021-06-29T17:38:55Z</time>
      </trkpt>
      <trkpt lat="43.9135" lon="5.17565">
        <ele>270</ele>
        <time>2021-06-29T17:38:59Z</time>
      </trkpt>
      <trkpt lat="43.91346" lon="5.17556">
        <ele>271</ele>
        <time>2021-06-29T17:39:04Z</time>
      </trkpt>
      <trkpt lat="43.91344" lon="5.17551">
        <ele>272.4</ele>
        <time>2021-06-29T17:39:07Z</time>
      </trkpt>
      <trkpt lat="43.91343" lon="5.17541">
        <ele>273.4</ele>
        <time>2021-06-29T17:39:12Z</time>
      </trkpt>
      <trkpt lat="43.91339" lon="5.17534">
        <ele>274.8</ele>
        <time>2021-06-29T17:39:16Z</time>
      </trkpt>
      <trkpt lat="43.91338" lon="5.17527">
        <ele>276</ele>
        <time>2021-06-29T17:39:20Z</time>
      </trkpt>
      <trkpt lat="43.91337" lon="5.17521">
        <ele>277</ele>
        <time>2021-06-29T17:39:25Z</time>
      </trkpt>
      <trkpt lat="43.91335" lon="5.17515">
        <ele>278.4</ele>
        <time>2021-06-29T17:39:29Z</time>
      </trkpt>
      <trkpt lat="43.91335" lon="5.17511">
        <ele>279.4</ele>
        <time>2021-06-29T17:39:32Z</time>
      </trkpt>
      <trkpt lat="43.91333" lon="5.17506">
        <ele>280.4</ele>
        <time>2021-06-29T17:39:35Z</time>
      </trkpt>
      <trkpt lat="43.91329" lon="5.17502">
        <ele>281.6</ele>
        <time>2021-06-29T17:39:39Z</time>
      </trkpt>
      <trkpt lat="43.91325" lon="5.17494">
        <ele>282.8</ele>
        <time>2021-06-29T17:39:45Z</time>
      </trkpt>
      <trkpt lat="43.91322" lon="5.17491">
        <ele>284</ele>
        <time>2021-06-29T17:39:48Z</time>
      </trkpt>
      <trkpt lat="43.91318" lon="5.17488">
        <ele>285</ele>
        <time>2021-06-29T17:39:51Z</time>
      </trkpt>
      <trkpt lat="43.91311" lon="5.1748">
        <ele>286.2</ele>
        <time>2021-06-29T17:40:00Z</time>
      </trkpt>
      <trkpt lat="43.91307" lon="5.17476">
        <ele>287.4</ele>
        <time>2021-06-29T17:40:04Z</time>
      </trkpt>
      <trkpt lat="43.91305" lon="5.17473">
        <ele>288.2</ele>
        <time>2021-06-29T17:40:06Z</time>
      </trkpt>
      <trkpt lat="43.91304" lon="5.17472">
        <ele>288.4</ele>
        <time>2021-06-29T17:40:07Z</time>
      </trkpt>
      <trkpt lat="43.91303" lon="5.17471">
        <ele>288.6</ele>
        <time>2021-06-29T17:40:08Z</time>
      </trkpt>
      <trkpt lat="43.913" lon="5.17468">
        <ele>289.6</ele>
        <time>2021-06-29T17:40:11Z</time>
      </trkpt>
      <trkpt lat="43.91294" lon="5.17461">
        <ele>290.8</ele>
        <time>2021-06-29T17:40:15Z</time>
      </trkpt>
      <trkpt lat="43.91291" lon="5.17456">
        <ele>292</ele>
        <time>2021-06-29T17:40:19Z</time>
      </trkpt>
      <trkpt lat="43.91286" lon="5.17452">
        <ele>293</ele>
        <time>2021-06-29T17:40:25Z</time>
      </trkpt>
      <trkpt lat="43.91282" lon="5.17447">
        <ele>294.4</ele>
        <time>2021-06-29T17:40:29Z</time>
      </trkpt>
      <trkpt lat="43.91279" lon="5.17445">
        <ele>295.6</ele>
        <time>2021-06-29T17:40:32Z</time>
      </trkpt>
      <trkpt lat="43.91275" lon="5.17442">
        <ele>296.6</ele>
        <time>2021-06-29T17:40:36Z</time>
      </trkpt>
      <trkpt lat="43.91271" lon="5.17435">
        <ele>297.8</ele>
        <time>2021-06-29T17:40:41Z</time>
      </trkpt>
      <trkpt lat="43.91267" lon="5.17432">
        <ele>299</ele>
        <time>2021-06-29T17:40:44Z</time>
      </trkpt>
      <trkpt lat="43.91262" lon="5.17429">
        <ele>300.2</ele>
        <time>2021-06-29T17:40:48Z</time>
      </trkpt>
      <trkpt lat="43.91258" lon="5.17424">
        <ele>301.2</ele>
        <time>2021-06-29T17:40:52Z</time>
      </trkpt>
      <trkpt lat="43.91255" lon="5.1742">
        <ele>302.2</ele>
        <time>2021-06-29T17:40:55Z</time>
      </trkpt>
      <trkpt lat="43.91251" lon="5.17418">
        <ele>303.4</ele>
        <time>2021-06-29T17:40:58Z</time>
      </trkpt>
      <trkpt lat="43.91244" lon="5.17414">
        <ele>304.6</ele>
        <time>2021-06-29T17:41:04Z</time>
      </trkpt>
      <trkpt lat="43.91241" lon="5.17412">
        <ele>305</ele>
        <time>2021-06-29T17:41:07Z</time>
      </trkpt>
      <trkpt lat="43.91237" lon="5.17411">
        <ele>306</ele>
        <time>2021-06-29T17:41:10Z</time>
      </trkpt>
      <trkpt lat="43.91231" lon="5.1741">
        <ele>307</ele>
        <time>2021-06-29T17:41:14Z</time>
      </trkpt>
      <trkpt lat="43.91225" lon="5.17409">
        <ele>307.4</ele>
        <time>2021-06-29T17:41:18Z</time>
      </trkpt>
      <trkpt lat="43.91221" lon="5.174">
        <ele>308.2</ele>
        <time>2021-06-29T17:41:24Z</time>
      </trkpt>
      <trkpt lat="43.9122" lon="5.17401">
        <ele>308.6</ele>
        <time>2021-06-29T17:41:25Z</time>
      </trkpt>
      <trkpt lat="43.91217" lon="5.17402">
        <ele>309.2</ele>
        <time>2021-06-29T17:41:27Z</time>
      </trkpt>
      <trkpt lat="43.91213" lon="5.17405">
        <ele>309.4</ele>
        <time>2021-06-29T17:41:30Z</time>
      </trkpt>
      <trkpt lat="43.91209" lon="5.17405">
        <ele>309</ele>
        <time>2021-06-29T17:41:33Z</time>
      </trkpt>
      <trkpt lat="43.91191" lon="5.17414">
        <ele>309</ele>
        <time>2021-06-29T17:41:43Z</time>
      </trkpt>
      <trkpt lat="43.91188" lon="5.17415">
        <ele>308.6</ele>
        <time>2021-06-29T17:41:45Z</time>
      </trkpt>
      <trkpt lat="43.91174" lon="5.17415">
        <ele>310.2</ele>
        <time>2021-06-29T17:41:54Z</time>
      </trkpt>
      <trkpt lat="43.91161" lon="5.17409">
        <ele>311.2</ele>
        <time>2021-06-29T17:42:04Z</time>
      </trkpt>
      <trkpt lat="43.91157" lon="5.17408">
        <ele>312</ele>
        <time>2021-06-29T17:42:07Z</time>
      </trkpt>
      <trkpt lat="43.91154" lon="5.17407">
        <ele>312.4</ele>
        <time>2021-06-29T17:42:09Z</time>
      </trkpt>
      <trkpt lat="43.91143" lon="5.17406">
        <ele>313.4</ele>
        <time>2021-06-29T17:42:17Z</time>
      </trkpt>
      <trkpt lat="43.91131" lon="5.17411">
        <ele>314.6</ele>
        <time>2021-06-29T17:42:25Z</time>
      </trkpt>
      <trkpt lat="43.91125" lon="5.17413">
        <ele>315.6</ele>
        <time>2021-06-29T17:42:29Z</time>
      </trkpt>
      <trkpt lat="43.91107" lon="5.17416">
        <ele>316.4</ele>
        <time>2021-06-29T17:42:40Z</time>
      </trkpt>
      <trkpt lat="43.911" lon="5.17411">
        <ele>316.6</ele>
        <time>2021-06-29T17:42:45Z</time>
      </trkpt>
      <trkpt lat="43.91093" lon="5.17402">
        <ele>317.6</ele>
        <time>2021-06-29T17:42:51Z</time>
      </trkpt>
      <trkpt lat="43.91094" lon="5.17398">
        <ele>318.4</ele>
        <time>2021-06-29T17:42:53Z</time>
      </trkpt>
      <trkpt lat="43.91097" lon="5.17395">
        <ele>318.8</ele>
        <time>2021-06-29T17:42:55Z</time>
      </trkpt>
      <trkpt lat="43.91099" lon="5.17393">
        <ele>319.2</ele>
        <time>2021-06-29T17:42:57Z</time>
      </trkpt>
      <trkpt lat="43.91102" lon="5.17395">
        <ele>319.6</ele>
        <time>2021-06-29T17:42:59Z</time>
      </trkpt>
      <trkpt lat="43.91103" lon="5.17397">
        <ele>320</ele>
        <time>2021-06-29T17:43:00Z</time>
      </trkpt>
      <trkpt lat="43.91115" lon="5.17404">
        <ele>320.8</ele>
        <time>2021-06-29T17:43:09Z</time>
      </trkpt>
      <trkpt lat="43.91121" lon="5.174">
        <ele>321</ele>
        <time>2021-06-29T17:43:16Z</time>
      </trkpt>
      <trkpt lat="43.91125" lon="5.17402">
        <ele>320</ele>
        <time>2021-06-29T17:43:29Z</time>
      </trkpt>
      <trkpt lat="43.91124" lon="5.17402">
        <ele>321</ele>
        <time>2021-06-29T17:44:30Z</time>
      </trkpt>
      <trkpt lat="43.91113" lon="5.17396">
        <ele>321.4</ele>
        <time>2021-06-29T17:46:16Z</time>
      </trkpt>
      <trkpt lat="43.91108" lon="5.17395">
        <ele>321.2</ele>
        <time>2021-06-29T17:46:22Z</time>
      </trkpt>
      <trkpt lat="43.91107" lon="5.17397">
        <ele>321</ele>
        <time>2021-06-29T17:46:24Z</time>
      </trkpt>
      <trkpt lat="43.91104" lon="5.17396">
        <ele>320.8</ele>
        <time>2021-06-29T17:47:18Z</time>
      </trkpt>
      <trkpt lat="43.91102" lon="5.17395">
        <ele>320.6</ele>
        <time>2021-06-29T17:47:20Z</time>
      </trkpt>
      <trkpt lat="43.911" lon="5.17394">
        <ele>320.6</ele>
        <time>2021-06-29T17:47:22Z</time>
      </trkpt>
      <trkpt lat="43.91096" lon="5.17396">
        <ele>320.4</ele>
        <time>2021-06-29T17:47:25Z</time>
      </trkpt>
      <trkpt lat="43.91088" lon="5.174">
        <ele>319.8</ele>
        <time>2021-06-29T17:47:32Z</time>
      </trkpt>
      <trkpt lat="43.91079" lon="5.17401">
        <ele>318.8</ele>
        <time>2021-06-29T17:47:39Z</time>
      </trkpt>
      <trkpt lat="43.91072" lon="5.17418">
        <ele>317.8</ele>
        <time>2021-06-29T17:47:49Z</time>
      </trkpt>
      <trkpt lat="43.91073" lon="5.17431">
        <ele>317.6</ele>
        <time>2021-06-29T17:47:56Z</time>
      </trkpt>
      <trkpt lat="43.91069" lon="5.17436">
        <ele>317.2</ele>
        <time>2021-06-29T17:48:00Z</time>
      </trkpt>
      <trkpt lat="43.91062" lon="5.1744">
        <ele>316.6</ele>
        <time>2021-06-29T17:48:05Z</time>
      </trkpt>
      <trkpt lat="43.91053" lon="5.17446">
        <ele>315.6</ele>
        <time>2021-06-29T17:48:10Z</time>
      </trkpt>
      <trkpt lat="43.91037" lon="5.17448">
        <ele>314.6</ele>
        <time>2021-06-29T17:48:20Z</time>
      </trkpt>
      <trkpt lat="43.91033" lon="5.17454">
        <ele>313.8</ele>
        <time>2021-06-29T17:48:24Z</time>
      </trkpt>
      <trkpt lat="43.9103" lon="5.17455">
        <ele>313.4</ele>
        <time>2021-06-29T17:48:26Z</time>
      </trkpt>
      <trkpt lat="43.91024" lon="5.17455">
        <ele>312.2</ele>
        <time>2021-06-29T17:48:30Z</time>
      </trkpt>
      <trkpt lat="43.91017" lon="5.17451">
        <ele>311.4</ele>
        <time>2021-06-29T17:48:35Z</time>
      </trkpt>
      <trkpt lat="43.91003" lon="5.17432">
        <ele>311.4</ele>
        <time>2021-06-29T17:48:46Z</time>
      </trkpt>
      <trkpt lat="43.90998" lon="5.1743">
        <ele>311.2</ele>
        <time>2021-06-29T17:48:49Z</time>
      </trkpt>
      <trkpt lat="43.90978" lon="5.17427">
        <ele>310</ele>
        <time>2021-06-29T17:49:00Z</time>
      </trkpt>
      <trkpt lat="43.90965" lon="5.17419">
        <ele>309</ele>
        <time>2021-06-29T17:49:08Z</time>
      </trkpt>
      <trkpt lat="43.90956" lon="5.17412">
        <ele>308</ele>
        <time>2021-06-29T17:49:14Z</time>
      </trkpt>
      <trkpt lat="43.90946" lon="5.17391">
        <ele>307.4</ele>
        <time>2021-06-29T17:49:24Z</time>
      </trkpt>
      <trkpt lat="43.90941" lon="5.17365">
        <ele>307.4</ele>
        <time>2021-06-29T17:49:35Z</time>
      </trkpt>
      <trkpt lat="43.90938" lon="5.17349">
        <ele>307</ele>
        <time>2021-06-29T17:49:43Z</time>
      </trkpt>
      <trkpt lat="43.90929" lon="5.17335">
        <ele>305.8</ele>
        <time>2021-06-29T17:49:51Z</time>
      </trkpt>
      <trkpt lat="43.90919" lon="5.17325">
        <ele>304.8</ele>
        <time>2021-06-29T17:49:59Z</time>
      </trkpt>
      <trkpt lat="43.9091" lon="5.17312">
        <ele>303.6</ele>
        <time>2021-06-29T17:50:07Z</time>
      </trkpt>
      <trkpt lat="43.90893" lon="5.17302">
        <ele>302.8</ele>
        <time>2021-06-29T17:50:18Z</time>
      </trkpt>
      <trkpt lat="43.90892" lon="5.17302">
        <ele>302.6</ele>
        <time>2021-06-29T17:50:19Z</time>
      </trkpt>
      <trkpt lat="43.90883" lon="5.17302">
        <ele>301.6</ele>
        <time>2021-06-29T17:50:24Z</time>
      </trkpt>
      <trkpt lat="43.90865" lon="5.17295">
        <ele>300.8</ele>
        <time>2021-06-29T17:50:34Z</time>
      </trkpt>
      <trkpt lat="43.90863" lon="5.17294">
        <ele>300.6</ele>
        <time>2021-06-29T17:50:35Z</time>
      </trkpt>
      <trkpt lat="43.90862" lon="5.17291">
        <ele>300.4</ele>
        <time>2021-06-29T17:50:36Z</time>
      </trkpt>
      <trkpt lat="43.90862" lon="5.17289">
        <ele>300</ele>
        <time>2021-06-29T17:50:37Z</time>
      </trkpt>
      <trkpt lat="43.90862" lon="5.17282">
        <ele>299.4</ele>
        <time>2021-06-29T17:50:40Z</time>
      </trkpt>
      <trkpt lat="43.90862" lon="5.1728">
        <ele>299.4</ele>
        <time>2021-06-29T17:50:41Z</time>
      </trkpt>
      <trkpt lat="43.90873" lon="5.17273">
        <ele>300.4</ele>
        <time>2021-06-29T17:50:50Z</time>
      </trkpt>
      <trkpt lat="43.90883" lon="5.17266">
        <ele>301.4</ele>
        <time>2021-06-29T17:50:58Z</time>
      </trkpt>
      <trkpt lat="43.9089" lon="5.17264">
        <ele>301.8</ele>
        <time>2021-06-29T17:51:13Z</time>
      </trkpt>
      <trkpt lat="43.90892" lon="5.17262">
        <ele>301.6</ele>
        <time>2021-06-29T17:51:15Z</time>
      </trkpt>
      <trkpt lat="43.90902" lon="5.17259">
        <ele>302.6</ele>
        <time>2021-06-29T17:51:24Z</time>
      </trkpt>
      <trkpt lat="43.90909" lon="5.17263">
        <ele>303.4</ele>
        <time>2021-06-29T17:51:43Z</time>
      </trkpt>
      <trkpt lat="43.90911" lon="5.17263">
        <ele>303.6</ele>
        <time>2021-06-29T17:51:44Z</time>
      </trkpt>
      <trkpt lat="43.90921" lon="5.17263">
        <ele>304.6</ele>
        <time>2021-06-29T17:51:51Z</time>
      </trkpt>
      <trkpt lat="43.90932" lon="5.17261">
        <ele>305.8</ele>
        <time>2021-06-29T17:51:59Z</time>
      </trkpt>
      <trkpt lat="43.90947" lon="5.17247">
        <ele>306.8</ele>
        <time>2021-06-29T17:52:10Z</time>
      </trkpt>
      <trkpt lat="43.90956" lon="5.17234">
        <ele>308</ele>
        <time>2021-06-29T17:52:18Z</time>
      </trkpt>
      <trkpt lat="43.90971" lon="5.17217">
        <ele>308.4</ele>
        <time>2021-06-29T17:52:30Z</time>
      </trkpt>
      <trkpt lat="43.90984" lon="5.17211">
        <ele>309.2</ele>
        <time>2021-06-29T17:52:38Z</time>
      </trkpt>
      <trkpt lat="43.91001" lon="5.17204">
        <ele>310.4</ele>
        <time>2021-06-29T17:52:50Z</time>
      </trkpt>
      <trkpt lat="43.91015" lon="5.172">
        <ele>311.6</ele>
        <time>2021-06-29T17:52:58Z</time>
      </trkpt>
      <trkpt lat="43.91029" lon="5.17194">
        <ele>312.8</ele>
        <time>2021-06-29T17:53:07Z</time>
      </trkpt>
      <trkpt lat="43.91035" lon="5.17192">
        <ele>313.8</ele>
        <time>2021-06-29T17:53:11Z</time>
      </trkpt>
      <trkpt lat="43.9105" lon="5.1718">
        <ele>314.8</ele>
        <time>2021-06-29T17:53:21Z</time>
      </trkpt>
      <trkpt lat="43.91059" lon="5.17163">
        <ele>316</ele>
        <time>2021-06-29T17:53:31Z</time>
      </trkpt>
      <trkpt lat="43.9107" lon="5.17146">
        <ele>317</ele>
        <time>2021-06-29T17:53:41Z</time>
      </trkpt>
      <trkpt lat="43.91084" lon="5.17133">
        <ele>318</ele>
        <time>2021-06-29T17:53:52Z</time>
      </trkpt>
      <trkpt lat="43.91086" lon="5.17108">
        <ele>318.4</ele>
        <time>2021-06-29T17:54:06Z</time>
      </trkpt>
      <trkpt lat="43.91086" lon="5.17106">
        <ele>318.2</ele>
        <time>2021-06-29T17:54:07Z</time>
      </trkpt>
      <trkpt lat="43.91077" lon="5.17083">
        <ele>317</ele>
        <time>2021-06-29T17:54:18Z</time>
      </trkpt>
      <trkpt lat="43.91076" lon="5.17081">
        <ele>317</ele>
        <time>2021-06-29T17:54:19Z</time>
      </trkpt>
      <trkpt lat="43.91062" lon="5.17062">
        <ele>316.2</ele>
        <time>2021-06-29T17:54:31Z</time>
      </trkpt>
      <trkpt lat="43.9106" lon="5.17059">
        <ele>315.6</ele>
        <time>2021-06-29T17:54:33Z</time>
      </trkpt>
      <trkpt lat="43.91048" lon="5.17046">
        <ele>314.6</ele>
        <time>2021-06-29T17:54:42Z</time>
      </trkpt>
      <trkpt lat="43.9104" lon="5.17039">
        <ele>314</ele>
        <time>2021-06-29T17:54:47Z</time>
      </trkpt>
      <trkpt lat="43.91037" lon="5.17036">
        <ele>313.6</ele>
        <time>2021-06-29T17:54:49Z</time>
      </trkpt>
      <trkpt lat="43.91035" lon="5.17033">
        <ele>313.4</ele>
        <time>2021-06-29T17:54:51Z</time>
      </trkpt>
      <trkpt lat="43.91029" lon="5.17026">
        <ele>312.4</ele>
        <time>2021-06-29T17:54:56Z</time>
      </trkpt>
      <trkpt lat="43.91026" lon="5.17018">
        <ele>311.4</ele>
        <time>2021-06-29T17:55:00Z</time>
      </trkpt>
      <trkpt lat="43.91022" lon="5.17004">
        <ele>310.4</ele>
        <time>2021-06-29T17:55:06Z</time>
      </trkpt>
      <trkpt lat="43.9102" lon="5.16983">
        <ele>309.2</ele>
        <time>2021-06-29T17:55:16Z</time>
      </trkpt>
      <trkpt lat="43.9102" lon="5.16958">
        <ele>308</ele>
        <time>2021-06-29T17:55:27Z</time>
      </trkpt>
      <trkpt lat="43.9102" lon="5.16956">
        <ele>307.6</ele>
        <time>2021-06-29T17:55:28Z</time>
      </trkpt>
      <trkpt lat="43.91018" lon="5.1695">
        <ele>306.8</ele>
        <time>2021-06-29T17:55:31Z</time>
      </trkpt>
      <trkpt lat="43.91019" lon="5.16938">
        <ele>305.6</ele>
        <time>2021-06-29T17:55:35Z</time>
      </trkpt>
      <trkpt lat="43.91017" lon="5.16928">
        <ele>304.4</ele>
        <time>2021-06-29T17:55:39Z</time>
      </trkpt>
      <trkpt lat="43.91017" lon="5.16918">
        <ele>303.2</ele>
        <time>2021-06-29T17:55:44Z</time>
      </trkpt>
      <trkpt lat="43.91018" lon="5.16916">
        <ele>303</ele>
        <time>2021-06-29T17:55:45Z</time>
      </trkpt>
      <trkpt lat="43.91021" lon="5.16898">
        <ele>302.2</ele>
        <time>2021-06-29T17:55:53Z</time>
      </trkpt>
      <trkpt lat="43.91021" lon="5.16892">
        <ele>301</ele>
        <time>2021-06-29T17:55:56Z</time>
      </trkpt>
      <trkpt lat="43.91021" lon="5.16885">
        <ele>299.8</ele>
        <time>2021-06-29T17:55:59Z</time>
      </trkpt>
      <trkpt lat="43.9102" lon="5.16877">
        <ele>298.8</ele>
        <time>2021-06-29T17:56:03Z</time>
      </trkpt>
      <trkpt lat="43.91019" lon="5.16865">
        <ele>297.6</ele>
        <time>2021-06-29T17:56:08Z</time>
      </trkpt>
      <trkpt lat="43.9102" lon="5.16853">
        <ele>296.6</ele>
        <time>2021-06-29T17:56:13Z</time>
      </trkpt>
      <trkpt lat="43.91018" lon="5.16828">
        <ele>295.8</ele>
        <time>2021-06-29T17:56:25Z</time>
      </trkpt>
      <trkpt lat="43.91016" lon="5.16825">
        <ele>295.6</ele>
        <time>2021-06-29T17:56:27Z</time>
      </trkpt>
      <trkpt lat="43.91005" lon="5.1682">
        <ele>294.4</ele>
        <time>2021-06-29T17:56:35Z</time>
      </trkpt>
      <trkpt lat="43.90996" lon="5.16816">
        <ele>293.2</ele>
        <time>2021-06-29T17:56:40Z</time>
      </trkpt>
      <trkpt lat="43.90985" lon="5.16814">
        <ele>292.2</ele>
        <time>2021-06-29T17:56:47Z</time>
      </trkpt>
      <trkpt lat="43.90982" lon="5.16814">
        <ele>291.8</ele>
        <time>2021-06-29T17:56:50Z</time>
      </trkpt>
      <trkpt lat="43.9098" lon="5.16812">
        <ele>291</ele>
        <time>2021-06-29T17:56:52Z</time>
      </trkpt>
      <trkpt lat="43.90977" lon="5.16804">
        <ele>290</ele>
        <time>2021-06-29T17:56:56Z</time>
      </trkpt>
      <trkpt lat="43.90969" lon="5.16786">
        <ele>288.8</ele>
        <time>2021-06-29T17:57:06Z</time>
      </trkpt>
      <trkpt lat="43.90962" lon="5.16773">
        <ele>287.6</ele>
        <time>2021-06-29T17:57:12Z</time>
      </trkpt>
      <trkpt lat="43.90951" lon="5.16751">
        <ele>287</ele>
        <time>2021-06-29T17:57:22Z</time>
      </trkpt>
      <trkpt lat="43.9094" lon="5.16731">
        <ele>286.6</ele>
        <time>2021-06-29T17:57:33Z</time>
      </trkpt>
      <trkpt lat="43.9094" lon="5.16729">
        <ele>286.4</ele>
        <time>2021-06-29T17:57:34Z</time>
      </trkpt>
      <trkpt lat="43.90934" lon="5.16714">
        <ele>285.2</ele>
        <time>2021-06-29T17:57:41Z</time>
      </trkpt>
      <trkpt lat="43.90925" lon="5.16691">
        <ele>284.4</ele>
        <time>2021-06-29T17:57:52Z</time>
      </trkpt>
      <trkpt lat="43.90923" lon="5.16687">
        <ele>284.2</ele>
        <time>2021-06-29T17:57:54Z</time>
      </trkpt>
      <trkpt lat="43.90914" lon="5.16664">
        <ele>283.6</ele>
        <time>2021-06-29T17:58:04Z</time>
      </trkpt>
      <trkpt lat="43.90909" lon="5.16639">
        <ele>284.4</ele>
        <time>2021-06-29T17:58:15Z</time>
      </trkpt>
      <trkpt lat="43.909" lon="5.16617">
        <ele>285</ele>
        <time>2021-06-29T17:58:26Z</time>
      </trkpt>
      <trkpt lat="43.90893" lon="5.16594">
        <ele>284.8</ele>
        <time>2021-06-29T17:58:37Z</time>
      </trkpt>
      <trkpt lat="43.90878" lon="5.1658">
        <ele>283.8</ele>
        <time>2021-06-29T17:58:47Z</time>
      </trkpt>
      <trkpt lat="43.90863" lon="5.16566">
        <ele>283.4</ele>
        <time>2021-06-29T17:58:59Z</time>
      </trkpt>
      <trkpt lat="43.90862" lon="5.16565">
        <ele>283.2</ele>
        <time>2021-06-29T17:59:00Z</time>
      </trkpt>
      <trkpt lat="43.90854" lon="5.16562">
        <ele>282</ele>
        <time>2021-06-29T17:59:05Z</time>
      </trkpt>
      <trkpt lat="43.90839" lon="5.16554">
        <ele>281</ele>
        <time>2021-06-29T17:59:15Z</time>
      </trkpt>
      <trkpt lat="43.90835" lon="5.16554">
        <ele>280</ele>
        <time>2021-06-29T17:59:19Z</time>
      </trkpt>
      <trkpt lat="43.90834" lon="5.16554">
        <ele>280</ele>
        <time>2021-06-29T17:59:20Z</time>
      </trkpt>
      <trkpt lat="43.90833" lon="5.16549">
        <ele>279</ele>
        <time>2021-06-29T18:00:09Z</time>
      </trkpt>
      <trkpt lat="43.9083" lon="5.16553">
        <ele>279.2</ele>
        <time>2021-06-29T18:00:33Z</time>
      </trkpt>
      <trkpt lat="43.90825" lon="5.16555">
        <ele>278.4</ele>
        <time>2021-06-29T18:00:37Z</time>
      </trkpt>
      <trkpt lat="43.90817" lon="5.16557">
        <ele>277.8</ele>
        <time>2021-06-29T18:00:42Z</time>
      </trkpt>
      <trkpt lat="43.908" lon="5.16561">
        <ele>276.8</ele>
        <time>2021-06-29T18:00:52Z</time>
      </trkpt>
      <trkpt lat="43.90792" lon="5.16565">
        <ele>275.8</ele>
        <time>2021-06-29T18:00:58Z</time>
      </trkpt>
      <trkpt lat="43.90786" lon="5.16572">
        <ele>274.4</ele>
        <time>2021-06-29T18:01:02Z</time>
      </trkpt>
      <trkpt lat="43.90775" lon="5.16572">
        <ele>273.2</ele>
        <time>2021-06-29T18:01:09Z</time>
      </trkpt>
      <trkpt lat="43.90768" lon="5.16573">
        <ele>272.2</ele>
        <time>2021-06-29T18:01:14Z</time>
      </trkpt>
      <trkpt lat="43.90754" lon="5.1657">
        <ele>271.2</ele>
        <time>2021-06-29T18:01:23Z</time>
      </trkpt>
      <trkpt lat="43.90735" lon="5.16569">
        <ele>270.4</ele>
        <time>2021-06-29T18:01:33Z</time>
      </trkpt>
      <trkpt lat="43.90734" lon="5.16569">
        <ele>270.2</ele>
        <time>2021-06-29T18:01:34Z</time>
      </trkpt>
      <trkpt lat="43.9073" lon="5.16568">
        <ele>269</ele>
        <time>2021-06-29T18:01:37Z</time>
      </trkpt>
      <trkpt lat="43.90724" lon="5.16568">
        <ele>267.8</ele>
        <time>2021-06-29T18:01:41Z</time>
      </trkpt>
      <trkpt lat="43.90707" lon="5.16568">
        <ele>266.8</ele>
        <time>2021-06-29T18:01:50Z</time>
      </trkpt>
      <trkpt lat="43.90695" lon="5.16564">
        <ele>265.6</ele>
        <time>2021-06-29T18:01:57Z</time>
      </trkpt>
      <trkpt lat="43.90677" lon="5.16562">
        <ele>264.8</ele>
        <time>2021-06-29T18:02:08Z</time>
      </trkpt>
      <trkpt lat="43.90674" lon="5.16563">
        <ele>264.6</ele>
        <time>2021-06-29T18:02:10Z</time>
      </trkpt>
      <trkpt lat="43.90669" lon="5.16567">
        <ele>263.6</ele>
        <time>2021-06-29T18:02:14Z</time>
      </trkpt>
      <trkpt lat="43.90662" lon="5.16572">
        <ele>262.4</ele>
        <time>2021-06-29T18:02:19Z</time>
      </trkpt>
      <trkpt lat="43.90661" lon="5.16572">
        <ele>262.2</ele>
        <time>2021-06-29T18:02:20Z</time>
      </trkpt>
      <trkpt lat="43.90654" lon="5.16572">
        <ele>261.4</ele>
        <time>2021-06-29T18:02:24Z</time>
      </trkpt>
      <trkpt lat="43.90639" lon="5.16577">
        <ele>260.4</ele>
        <time>2021-06-29T18:02:33Z</time>
      </trkpt>
      <trkpt lat="43.90631" lon="5.16586">
        <ele>259.2</ele>
        <time>2021-06-29T18:02:39Z</time>
      </trkpt>
      <trkpt lat="43.90613" lon="5.16591">
        <ele>258.2</ele>
        <time>2021-06-29T18:02:49Z</time>
      </trkpt>
      <trkpt lat="43.906" lon="5.16592">
        <ele>257.2</ele>
        <time>2021-06-29T18:02:57Z</time>
      </trkpt>
      <trkpt lat="43.90582" lon="5.1659">
        <ele>256.2</ele>
        <time>2021-06-29T18:03:07Z</time>
      </trkpt>
      <trkpt lat="43.9058" lon="5.16589">
        <ele>256.2</ele>
        <time>2021-06-29T18:03:08Z</time>
      </trkpt>
      <trkpt lat="43.90569" lon="5.16579">
        <ele>255</ele>
        <time>2021-06-29T18:03:15Z</time>
      </trkpt>
      <trkpt lat="43.90555" lon="5.16567">
        <ele>254</ele>
        <time>2021-06-29T18:03:24Z</time>
      </trkpt>
      <trkpt lat="43.90539" lon="5.16551">
        <ele>253</ele>
        <time>2021-06-29T18:03:35Z</time>
      </trkpt>
      <trkpt lat="43.90525" lon="5.16544">
        <ele>252.8</ele>
        <time>2021-06-29T18:03:44Z</time>
      </trkpt>
      <trkpt lat="43.9052" lon="5.16544">
        <ele>251.6</ele>
        <time>2021-06-29T18:03:47Z</time>
      </trkpt>
      <trkpt lat="43.9051" lon="5.16545">
        <ele>250.4</ele>
        <time>2021-06-29T18:03:54Z</time>
      </trkpt>
      <trkpt lat="43.90498" lon="5.16546">
        <ele>249.4</ele>
        <time>2021-06-29T18:04:01Z</time>
      </trkpt>
      <trkpt lat="43.90487" lon="5.16547">
        <ele>248.2</ele>
        <time>2021-06-29T18:04:07Z</time>
      </trkpt>
      <trkpt lat="43.90478" lon="5.16549">
        <ele>247.2</ele>
        <time>2021-06-29T18:04:12Z</time>
      </trkpt>
      <trkpt lat="43.90463" lon="5.16549">
        <ele>246.2</ele>
        <time>2021-06-29T18:04:21Z</time>
      </trkpt>
      <trkpt lat="43.90448" lon="5.16549">
        <ele>245.2</ele>
        <time>2021-06-29T18:04:30Z</time>
      </trkpt>
      <trkpt lat="43.90439" lon="5.1655">
        <ele>244</ele>
        <time>2021-06-29T18:04:36Z</time>
      </trkpt>
      <trkpt lat="43.90419" lon="5.16551">
        <ele>243</ele>
        <time>2021-06-29T18:04:47Z</time>
      </trkpt>
      <trkpt lat="43.90417" lon="5.16551">
        <ele>242.8</ele>
        <time>2021-06-29T18:04:48Z</time>
      </trkpt>
      <trkpt lat="43.90399" lon="5.16551">
        <ele>241.8</ele>
        <time>2021-06-29T18:04:59Z</time>
      </trkpt>
      <trkpt lat="43.90381" lon="5.16548">
        <ele>241.6</ele>
        <time>2021-06-29T18:05:11Z</time>
      </trkpt>
      <trkpt lat="43.90372" lon="5.16546">
        <ele>240.8</ele>
        <time>2021-06-29T18:05:17Z</time>
      </trkpt>
      <trkpt lat="43.90361" lon="5.16543">
        <ele>239.6</ele>
        <time>2021-06-29T18:05:25Z</time>
      </trkpt>
      <trkpt lat="43.90342" lon="5.1654">
        <ele>239.4</ele>
        <time>2021-06-29T18:05:35Z</time>
      </trkpt>
      <trkpt lat="43.90332" lon="5.16539">
        <ele>238.6</ele>
        <time>2021-06-29T18:05:40Z</time>
      </trkpt>
      <trkpt lat="43.90313" lon="5.16535">
        <ele>238</ele>
        <time>2021-06-29T18:05:50Z</time>
      </trkpt>
      <trkpt lat="43.90295" lon="5.16528">
        <ele>238</ele>
        <time>2021-06-29T18:05:59Z</time>
      </trkpt>
      <trkpt lat="43.90291" lon="5.16528">
        <ele>237.6</ele>
        <time>2021-06-29T18:06:01Z</time>
      </trkpt>
      <trkpt lat="43.90275" lon="5.16523">
        <ele>236.4</ele>
        <time>2021-06-29T18:06:09Z</time>
      </trkpt>
      <trkpt lat="43.90266" lon="5.16522">
        <ele>235.6</ele>
        <time>2021-06-29T18:06:15Z</time>
      </trkpt>
      <trkpt lat="43.90267" lon="5.16521">
        <ele>235.4</ele>
        <time>2021-06-29T18:06:17Z</time>
      </trkpt>
      <trkpt lat="43.90269" lon="5.16498">
        <ele>234.4</ele>
        <time>2021-06-29T18:07:16Z</time>
      </trkpt>
      <trkpt lat="43.9027" lon="5.1649">
        <ele>233.2</ele>
        <time>2021-06-29T18:07:21Z</time>
      </trkpt>
      <trkpt lat="43.90272" lon="5.16483">
        <ele>232.2</ele>
        <time>2021-06-29T18:07:26Z</time>
      </trkpt>
      <trkpt lat="43.90272" lon="5.16482">
        <ele>232</ele>
        <time>2021-06-29T18:07:27Z</time>
      </trkpt>
      <trkpt lat="43.90272" lon="5.16478">
        <ele>230.8</ele>
        <time>2021-06-29T18:07:30Z</time>
      </trkpt>
      <trkpt lat="43.90273" lon="5.16469">
        <ele>229.6</ele>
        <time>2021-06-29T18:07:34Z</time>
      </trkpt>
      <trkpt lat="43.90274" lon="5.16463">
        <ele>228.6</ele>
        <time>2021-06-29T18:07:37Z</time>
      </trkpt>
      <trkpt lat="43.90274" lon="5.16456">
        <ele>227.8</ele>
        <time>2021-06-29T18:07:40Z</time>
      </trkpt>
      <trkpt lat="43.90273" lon="5.16449">
        <ele>227.6</ele>
        <time>2021-06-29T18:07:43Z</time>
      </trkpt>
      <trkpt lat="43.90273" lon="5.16447">
        <ele>227.6</ele>
        <time>2021-06-29T18:07:44Z</time>
      </trkpt>
      <trkpt lat="43.90275" lon="5.16421">
        <ele>228</ele>
        <time>2021-06-29T18:07:56Z</time>
      </trkpt>
      <trkpt lat="43.90277" lon="5.16411">
        <ele>228.6</ele>
        <time>2021-06-29T18:08:01Z</time>
      </trkpt>
      <trkpt lat="43.90281" lon="5.16402">
        <ele>229.8</ele>
        <time>2021-06-29T18:08:07Z</time>
      </trkpt>
      <trkpt lat="43.90281" lon="5.16396">
        <ele>230.8</ele>
        <time>2021-06-29T18:08:11Z</time>
      </trkpt>
      <trkpt lat="43.9028" lon="5.16393">
        <ele>231.6</ele>
        <time>2021-06-29T18:08:13Z</time>
      </trkpt>
      <trkpt lat="43.9028" lon="5.16391">
        <ele>232</ele>
        <time>2021-06-29T18:08:14Z</time>
      </trkpt>
      <trkpt lat="43.90283" lon="5.16385">
        <ele>233.2</ele>
        <time>2021-06-29T18:08:17Z</time>
      </trkpt>
      <trkpt lat="43.90283" lon="5.16383">
        <ele>233.6</ele>
        <time>2021-06-29T18:08:18Z</time>
      </trkpt>
      <trkpt lat="43.90283" lon="5.16377">
        <ele>234.2</ele>
        <time>2021-06-29T18:08:21Z</time>
      </trkpt>
      <trkpt lat="43.90283" lon="5.16372">
        <ele>234.6</ele>
        <time>2021-06-29T18:08:23Z</time>
      </trkpt>
      <trkpt lat="43.90286" lon="5.16355">
        <ele>235.4</ele>
        <time>2021-06-29T18:08:31Z</time>
      </trkpt>
      <trkpt lat="43.90292" lon="5.16338">
        <ele>236.6</ele>
        <time>2021-06-29T18:08:39Z</time>
      </trkpt>
      <trkpt lat="43.90293" lon="5.16326">
        <ele>237.6</ele>
        <time>2021-06-29T18:08:45Z</time>
      </trkpt>
      <trkpt lat="43.90297" lon="5.16302">
        <ele>238.4</ele>
        <time>2021-06-29T18:08:56Z</time>
      </trkpt>
      <trkpt lat="43.90298" lon="5.16298">
        <ele>238.6</ele>
        <time>2021-06-29T18:08:58Z</time>
      </trkpt>
      <trkpt lat="43.90301" lon="5.16271">
        <ele>239</ele>
        <time>2021-06-29T18:09:11Z</time>
      </trkpt>
      <trkpt lat="43.90302" lon="5.16268">
        <ele>239.8</ele>
        <time>2021-06-29T18:09:13Z</time>
      </trkpt>
      <trkpt lat="43.90302" lon="5.16242">
        <ele>240.8</ele>
        <time>2021-06-29T18:09:25Z</time>
      </trkpt>
      <trkpt lat="43.90302" lon="5.16238">
        <ele>241.4</ele>
        <time>2021-06-29T18:09:28Z</time>
      </trkpt>
      <trkpt lat="43.90305" lon="5.16221">
        <ele>241.6</ele>
        <time>2021-06-29T18:09:36Z</time>
      </trkpt>
      <trkpt lat="43.90304" lon="5.16215">
        <ele>241.8</ele>
        <time>2021-06-29T18:09:40Z</time>
      </trkpt>
      <trkpt lat="43.90286" lon="5.16208">
        <ele>241.2</ele>
        <time>2021-06-29T18:09:53Z</time>
      </trkpt>
      <trkpt lat="43.9027" lon="5.16196">
        <ele>240.6</ele>
        <time>2021-06-29T18:10:06Z</time>
      </trkpt>
      <trkpt lat="43.90253" lon="5.16186">
        <ele>240.6</ele>
        <time>2021-06-29T18:10:16Z</time>
      </trkpt>
      <trkpt lat="43.90235" lon="5.16181">
        <ele>239.8</ele>
        <time>2021-06-29T18:10:25Z</time>
      </trkpt>
      <trkpt lat="43.90218" lon="5.16171">
        <ele>239.2</ele>
        <time>2021-06-29T18:10:34Z</time>
      </trkpt>
      <trkpt lat="43.90214" lon="5.16168">
        <ele>238.6</ele>
        <time>2021-06-29T18:10:36Z</time>
      </trkpt>
      <trkpt lat="43.90203" lon="5.16159">
        <ele>237.6</ele>
        <time>2021-06-29T18:10:44Z</time>
      </trkpt>
      <trkpt lat="43.90188" lon="5.16143">
        <ele>237.4</ele>
        <time>2021-06-29T18:10:55Z</time>
      </trkpt>
      <trkpt lat="43.90173" lon="5.16127">
        <ele>237.6</ele>
        <time>2021-06-29T18:11:04Z</time>
      </trkpt>
      <trkpt lat="43.90159" lon="5.16114">
        <ele>236.2</ele>
        <time>2021-06-29T18:11:13Z</time>
      </trkpt>
      <trkpt lat="43.90147" lon="5.16112">
        <ele>235.2</ele>
        <time>2021-06-29T18:11:22Z</time>
      </trkpt>
      <trkpt lat="43.9013" lon="5.16102">
        <ele>234.8</ele>
        <time>2021-06-29T18:11:33Z</time>
      </trkpt>
      <trkpt lat="43.90114" lon="5.16089">
        <ele>234.6</ele>
        <time>2021-06-29T18:11:42Z</time>
      </trkpt>
      <trkpt lat="43.90109" lon="5.16084">
        <ele>234</ele>
        <time>2021-06-29T18:11:45Z</time>
      </trkpt>
      <trkpt lat="43.90102" lon="5.16076">
        <ele>232.8</ele>
        <time>2021-06-29T18:11:51Z</time>
      </trkpt>
      <trkpt lat="43.90089" lon="5.16058">
        <ele>231.8</ele>
        <time>2021-06-29T18:12:01Z</time>
      </trkpt>
      <trkpt lat="43.90073" lon="5.16042">
        <ele>231.4</ele>
        <time>2021-06-29T18:12:12Z</time>
      </trkpt>
      <trkpt lat="43.90069" lon="5.16037">
        <ele>230.8</ele>
        <time>2021-06-29T18:12:16Z</time>
      </trkpt>
      <trkpt lat="43.90053" lon="5.16023">
        <ele>230</ele>
        <time>2021-06-29T18:12:27Z</time>
      </trkpt>
      <trkpt lat="43.90038" lon="5.16007">
        <ele>230</ele>
        <time>2021-06-29T18:12:39Z</time>
      </trkpt>
      <trkpt lat="43.90035" lon="5.16003">
        <ele>230</ele>
        <time>2021-06-29T18:12:41Z</time>
      </trkpt>
      <trkpt lat="43.9003" lon="5.15994">
        <ele>229.8</ele>
        <time>2021-06-29T18:12:46Z</time>
      </trkpt>
      <trkpt lat="43.90024" lon="5.15991">
        <ele>229.6</ele>
        <time>2021-06-29T18:12:49Z</time>
      </trkpt>
      <trkpt lat="43.90012" lon="5.15989">
        <ele>228.8</ele>
        <time>2021-06-29T18:12:55Z</time>
      </trkpt>
      <trkpt lat="43.9" lon="5.15982">
        <ele>227.6</ele>
        <time>2021-06-29T18:13:02Z</time>
      </trkpt>
      <trkpt lat="43.89982" lon="5.1597">
        <ele>226.4</ele>
        <time>2021-06-29T18:13:12Z</time>
      </trkpt>
      <trkpt lat="43.89976" lon="5.1596">
        <ele>225.2</ele>
        <time>2021-06-29T18:13:16Z</time>
      </trkpt>
      <trkpt lat="43.89968" lon="5.15944">
        <ele>225</ele>
        <time>2021-06-29T18:13:23Z</time>
      </trkpt>
      <trkpt lat="43.89964" lon="5.15919">
        <ele>225.2</ele>
        <time>2021-06-29T18:13:33Z</time>
      </trkpt>
      <trkpt lat="43.89955" lon="5.15899">
        <ele>226.4</ele>
        <time>2021-06-29T18:13:42Z</time>
      </trkpt>
      <trkpt lat="43.89944" lon="5.15879">
        <ele>227.2</ele>
        <time>2021-06-29T18:13:52Z</time>
      </trkpt>
      <trkpt lat="43.89933" lon="5.15858">
        <ele>227.4</ele>
        <time>2021-06-29T18:14:04Z</time>
      </trkpt>
      <trkpt lat="43.89919" lon="5.15841">
        <ele>226.4</ele>
        <time>2021-06-29T18:14:14Z</time>
      </trkpt>
      <trkpt lat="43.89909" lon="5.1582">
        <ele>225.8</ele>
        <time>2021-06-29T18:14:24Z</time>
      </trkpt>
      <trkpt lat="43.89904" lon="5.15795">
        <ele>226.6</ele>
        <time>2021-06-29T18:14:35Z</time>
      </trkpt>
      <trkpt lat="43.89903" lon="5.15773">
        <ele>227.4</ele>
        <time>2021-06-29T18:14:44Z</time>
      </trkpt>
      <trkpt lat="43.89904" lon="5.15757">
        <ele>228.2</ele>
        <time>2021-06-29T18:14:50Z</time>
      </trkpt>
      <trkpt lat="43.89903" lon="5.15753">
        <ele>228.4</ele>
        <time>2021-06-29T18:14:52Z</time>
      </trkpt>
      <trkpt lat="43.89902" lon="5.15749">
        <ele>228.4</ele>
        <time>2021-06-29T18:14:54Z</time>
      </trkpt>
      <trkpt lat="43.89902" lon="5.15744">
        <ele>228.4</ele>
        <time>2021-06-29T18:14:56Z</time>
      </trkpt>
      <trkpt lat="43.89902" lon="5.15734">
        <ele>229.6</ele>
        <time>2021-06-29T18:15:01Z</time>
      </trkpt>
      <trkpt lat="43.89904" lon="5.15722">
        <ele>230.6</ele>
        <time>2021-06-29T18:15:06Z</time>
      </trkpt>
      <trkpt lat="43.89909" lon="5.15698">
        <ele>231.4</ele>
        <time>2021-06-29T18:15:16Z</time>
      </trkpt>
      <trkpt lat="43.8991" lon="5.15693">
        <ele>231.8</ele>
        <time>2021-06-29T18:15:18Z</time>
      </trkpt>
      <trkpt lat="43.89913" lon="5.15681">
        <ele>232.8</ele>
        <time>2021-06-29T18:15:23Z</time>
      </trkpt>
      <trkpt lat="43.8992" lon="5.15661">
        <ele>233.4</ele>
        <time>2021-06-29T18:15:33Z</time>
      </trkpt>
      <trkpt lat="43.8992" lon="5.15657">
        <ele>233.6</ele>
        <time>2021-06-29T18:15:35Z</time>
      </trkpt>
      <trkpt lat="43.89911" lon="5.15635">
        <ele>233</ele>
        <time>2021-06-29T18:15:47Z</time>
      </trkpt>
      <trkpt lat="43.89901" lon="5.15613">
        <ele>232</ele>
        <time>2021-06-29T18:15:59Z</time>
      </trkpt>
      <trkpt lat="43.89898" lon="5.15605">
        <ele>231.8</ele>
        <time>2021-06-29T18:16:02Z</time>
      </trkpt>
      <trkpt lat="43.8989" lon="5.15595">
        <ele>230.8</ele>
        <time>2021-06-29T18:16:09Z</time>
      </trkpt>
      <trkpt lat="43.89873" lon="5.15583">
        <ele>229.8</ele>
        <time>2021-06-29T18:16:21Z</time>
      </trkpt>
      <trkpt lat="43.89856" lon="5.15573">
        <ele>228.8</ele>
        <time>2021-06-29T18:16:32Z</time>
      </trkpt>
      <trkpt lat="43.89854" lon="5.15571">
        <ele>228.6</ele>
        <time>2021-06-29T18:16:33Z</time>
      </trkpt>
      <trkpt lat="43.89845" lon="5.15566">
        <ele>227.4</ele>
        <time>2021-06-29T18:16:39Z</time>
      </trkpt>
      <trkpt lat="43.89831" lon="5.15558">
        <ele>226.6</ele>
        <time>2021-06-29T18:16:47Z</time>
      </trkpt>
      <trkpt lat="43.89829" lon="5.15554">
        <ele>226.4</ele>
        <time>2021-06-29T18:16:49Z</time>
      </trkpt>
      <trkpt lat="43.89819" lon="5.1554">
        <ele>226</ele>
        <time>2021-06-29T18:16:56Z</time>
      </trkpt>
      <trkpt lat="43.89813" lon="5.15525">
        <ele>226</ele>
        <time>2021-06-29T18:17:03Z</time>
      </trkpt>
      <trkpt lat="43.89811" lon="5.15509">
        <ele>226.2</ele>
        <time>2021-06-29T18:17:10Z</time>
      </trkpt>
      <trkpt lat="43.89808" lon="5.15501">
        <ele>225.2</ele>
        <time>2021-06-29T18:17:14Z</time>
      </trkpt>
      <trkpt lat="43.89807" lon="5.15493">
        <ele>225</ele>
        <time>2021-06-29T18:17:18Z</time>
      </trkpt>
      <trkpt lat="43.89803" lon="5.1549">
        <ele>224.8</ele>
        <time>2021-06-29T18:17:22Z</time>
      </trkpt>
      <trkpt lat="43.89798" lon="5.15486">
        <ele>224.2</ele>
        <time>2021-06-29T18:17:26Z</time>
      </trkpt>
      <trkpt lat="43.8979" lon="5.15476">
        <ele>223.2</ele>
        <time>2021-06-29T18:17:33Z</time>
      </trkpt>
      <trkpt lat="43.89787" lon="5.15473">
        <ele>222.8</ele>
        <time>2021-06-29T18:17:36Z</time>
      </trkpt>
      <trkpt lat="43.89781" lon="5.15469">
        <ele>222.2</ele>
        <time>2021-06-29T18:17:40Z</time>
      </trkpt>
      <trkpt lat="43.89779" lon="5.15466">
        <ele>222.2</ele>
        <time>2021-06-29T18:17:42Z</time>
      </trkpt>
      <trkpt lat="43.89766" lon="5.15463">
        <ele>221.2</ele>
        <time>2021-06-29T18:17:52Z</time>
      </trkpt>
      <trkpt lat="43.89747" lon="5.15455">
        <ele>220.2</ele>
        <time>2021-06-29T18:18:04Z</time>
      </trkpt>
      <trkpt lat="43.89746" lon="5.15454">
        <ele>219.8</ele>
        <time>2021-06-29T18:18:05Z</time>
      </trkpt>
      <trkpt lat="43.89737" lon="5.15441">
        <ele>218.8</ele>
        <time>2021-06-29T18:18:12Z</time>
      </trkpt>
      <trkpt lat="43.89734" lon="5.15439">
        <ele>218.6</ele>
        <time>2021-06-29T18:18:15Z</time>
      </trkpt>
      <trkpt lat="43.8973" lon="5.15438">
        <ele>218.4</ele>
        <time>2021-06-29T18:18:17Z</time>
      </trkpt>
      <trkpt lat="43.89726" lon="5.15437">
        <ele>217.6</ele>
        <time>2021-06-29T18:18:20Z</time>
      </trkpt>
      <trkpt lat="43.89714" lon="5.1543">
        <ele>217</ele>
        <time>2021-06-29T18:18:28Z</time>
      </trkpt>
      <trkpt lat="43.89711" lon="5.15423">
        <ele>216.6</ele>
        <time>2021-06-29T18:18:32Z</time>
      </trkpt>
      <trkpt lat="43.89709" lon="5.15423">
        <ele>216.6</ele>
        <time>2021-06-29T18:18:33Z</time>
      </trkpt>
      <trkpt lat="43.89703" lon="5.15426">
        <ele>215.6</ele>
        <time>2021-06-29T18:18:39Z</time>
      </trkpt>
      <trkpt lat="43.89703" lon="5.15429">
        <ele>215.4</ele>
        <time>2021-06-29T18:18:41Z</time>
      </trkpt>
    </trkseg>
  </trk>
</gpx>